Warning: Javascript must be enabled to use all the features on this page!


Page Loading - Please Wait...

Click to hideNews Bulletins
Click to hide state-specific text

Welcome to the NWIS-Web for the Arizona Water Science Center


The majority of USGS Gaging Stations are funded though a cooperative program between the USGS other interested agencies.
Follow this link for information on the Cooperative Water Program with the USGS.


Threatened and Endangered USGS Gaging Stations in Arizona
Colorado Basin River Forecast Center - provided by the National Weather Service, AHPS. CBRFC on Google Maps.
Arizona Water Science Center Home Page

USGS 09471000 SAN PEDRO RIVER AT CHARLESTON, AZ.

PROVISIONAL DATA SUBJECT TO REVISION

Click to hidestation-specific text
Station operated in cooperation with Cochise County, the Bureau of Land Management, and the Arizona Department of Water Resources.

HIGH DATA RATE (Site data are transmitted & updated hourly)
rainfall Arrow
This station managed by the Tucson Field Office; USGS, AZ-WSC.

Available Parameters Available Period
All 4 Available Parameters for this site
  
00065 Gage height [Radar Stage Sensor] 2014-06-26  2014-10-24
00065 Gage height [Bubbler Stage Sensor] 2007-10-01  2014-10-24
00060 Discharge 2007-10-01  2014-10-24
00045 Precipitation 2014-06-26  2014-10-24

Graph
Graph w/ stats
Graph w/o stats
Graph w/ (up to 3) parms
Table
Tab-separated
Days  (18)
 

  -- or --
Begin date
 

End date
 

Summary of all available data for this site
Instantaneous-data availability statement






Date / Time




Gage
height,
feet,
[Bubbler
Stage
Sensor]




Dis-
charge,
ft3/s,



Precip-
itation
total,
inches,
10/06/2014 00:00 MST2.49P  39.0P  0.00P  
10/06/2014 00:15 MST2.48P  38.0P  0.00P  
10/06/2014 00:30 MST2.49P  39.0P  0.00P  
10/06/2014 00:45 MST2.49P  39.0P  0.00P  
10/06/2014 01:00 MST2.50P  40.0P  0.00P  
10/06/2014 01:15 MST2.49P  39.0P  0.00P  
10/06/2014 01:30 MST2.50P  40.0P  0.00P  
10/06/2014 01:45 MST2.51P  41.0P  0.00P  
10/06/2014 02:00 MST2.50P  40.0P  0.00P  
10/06/2014 02:15 MST2.50P  40.0P  0.00P  
10/06/2014 02:30 MST2.49P  39.0P  0.00P  
10/06/2014 02:45 MST2.49P  39.0P  0.00P  
10/06/2014 03:00 MST2.50P  40.0P  0.00P  
10/06/2014 03:15 MST2.51P  41.0P  0.00P  
10/06/2014 03:30 MST2.49P  39.0P  0.00P  
10/06/2014 03:45 MST2.50P  40.0P  0.00P  
10/06/2014 04:00 MST2.50P  40.0P  0.00P  
10/06/2014 04:15 MST2.49P  39.0P  0.00P  
10/06/2014 04:30 MST2.51P  41.0P  0.00P  
10/06/2014 04:45 MST2.49P  39.0P  0.00P  
10/06/2014 05:00 MST2.49P  39.0P  0.00P  
10/06/2014 05:15 MST2.50P  40.0P  0.00P  
10/06/2014 05:30 MST2.49P  39.0P  0.00P  
10/06/2014 05:45 MST2.50P  40.0P  0.00P  
10/06/2014 06:00 MST2.50P  40.0P  0.00P  
10/06/2014 06:15 MST2.48P  38.0P  0.00P  
10/06/2014 06:29 MST2.49P  39.0P  0.00P  
10/06/2014 06:30 MST2.49P  39.0P  0.00P  
10/06/2014 06:44 MST2.50P  40.0P  0.00P  
10/06/2014 06:45 MST2.50P  40.0P  0.00P  
10/06/2014 07:00 MST2.49P  39.0P  0.00P  
10/06/2014 07:15 MST2.48P  38.0P  0.00P  
10/06/2014 07:30 MST2.48P  38.0P  0.00P  
10/06/2014 07:45 MST2.50P  40.0P  0.00P  
10/06/2014 08:00 MST2.50P  40.0P  0.00P  
10/06/2014 08:15 MST2.49P  39.0P  0.00P  
10/06/2014 08:30 MST2.49P  39.0P  0.00P  
10/06/2014 08:45 MST2.48P  38.0P  0.00P  
10/06/2014 09:00 MST2.50P  40.0P  0.00P  
10/06/2014 09:15 MST2.50P  40.0P  0.00P  
10/06/2014 09:30 MST2.49P  39.0P  0.00P  
10/06/2014 09:45 MST2.49P  39.0P  0.00P  
10/06/2014 10:00 MST2.48P  38.0P  0.00P  
10/06/2014 10:15 MST2.50P  40.0P  0.00P  
10/06/2014 10:30 MST2.50P  40.0P  0.00P  
10/06/2014 10:45 MST2.49P  39.0P  0.00P  
10/06/2014 11:00 MST2.48P  38.0P  0.00P  
10/06/2014 11:15 MST2.48P  38.0P  0.00P  
10/06/2014 11:30 MST2.48P  38.0P  0.00P  
10/06/2014 11:45 MST2.49P  39.0P  0.00P  
10/06/2014 12:00 MST2.50P  40.0P  0.00P  
10/06/2014 12:15 MST2.50P  40.0P  0.00P  
10/06/2014 12:30 MST2.47P  37.1P  0.00P  
10/06/2014 12:45 MST2.49P  39.0P  0.00P  
10/06/2014 13:00 MST2.49P  39.0P  0.00P  
10/06/2014 13:15 MST2.49P  39.0P  0.00P  
10/06/2014 13:30 MST2.50P  40.0P  0.00P  
10/06/2014 13:45 MST2.50P  40.0P  0.00P  
10/06/2014 14:00 MST2.48P  38.0P  0.00P  
10/06/2014 14:15 MST2.48P  38.0P  0.00P  
10/06/2014 14:30 MST2.48P  38.0P  0.00P  
10/06/2014 14:45 MST2.49P  39.0P  0.00P  
10/06/2014 15:00 MST2.48P  38.0P  0.00P  
10/06/2014 15:15 MST2.48P  38.0P  0.00P  
10/06/2014 15:30 MST2.48P  38.0P  0.00P  
10/06/2014 15:45 MST2.48P  38.0P  0.00P  
10/06/2014 16:00 MST2.48P  38.0P  0.00P  
10/06/2014 16:15 MST2.48P  38.0P  0.00P  
10/06/2014 16:30 MST2.48P  38.0P  0.00P  
10/06/2014 16:45 MST2.47P  37.1P  0.00P  
10/06/2014 17:00 MST2.47P  37.1P  0.00P  
10/06/2014 17:15 MST2.49P  39.0P  0.00P  
10/06/2014 17:30 MST2.49P  39.0P  0.00P  
10/06/2014 17:45 MST2.48P  38.0P  0.00P  
10/06/2014 18:00 MST2.48P  38.0P  0.00P  
10/06/2014 18:15 MST2.48P  38.0P  0.00P  
10/06/2014 18:30 MST2.47P  37.1P  0.00P  
10/06/2014 18:45 MST2.48P  38.0P  0.00P  
10/06/2014 19:00 MST2.49P  39.0P  0.00P  
10/06/2014 19:15 MST2.49P  39.0P  0.00P  
10/06/2014 19:30 MST2.48P  38.0P  0.00P  
10/06/2014 19:45 MST2.47P  37.1P  0.00P  
10/06/2014 20:00 MST2.48P  38.0P  0.00P  
10/06/2014 20:15 MST2.48P  38.0P  0.00P  
10/06/2014 20:30 MST2.50P  40.0P  0.00P  
10/06/2014 20:45 MST2.48P  38.0P  0.00P  
10/06/2014 21:00 MST2.48P  38.0P  0.00P  
10/06/2014 21:15 MST2.48P  38.0P  0.00P  
10/06/2014 21:30 MST2.48P  38.0P  0.00P  
10/06/2014 21:45 MST2.46P  36.1P  0.00P  
10/06/2014 22:00 MST2.48P  38.0P  0.00P  
10/06/2014 22:15 MST2.49P  39.0P  0.00P  
10/06/2014 22:30 MST2.48P  38.0P  0.00P  
10/06/2014 22:45 MST2.48P  38.0P  0.00P  
10/06/2014 23:00 MST2.48P  38.0P  0.00P  
10/06/2014 23:15 MST2.48P  38.0P  0.00P  
10/06/2014 23:30 MST2.48P  38.0P  0.00P  
10/06/2014 23:45 MST2.49P  39.0P  0.00P  
10/07/2014 00:00 MST2.48P  37.1P  0.00P  
10/07/2014 00:15 MST2.46P  35.2P  0.00P  
10/07/2014 00:30 MST2.47P  36.1P  0.00P  
10/07/2014 00:45 MST2.48P  37.1P  0.00P  
10/07/2014 01:00 MST2.48P  37.1P  0.00P  
10/07/2014 01:15 MST2.49P  38.0P  0.00P  
10/07/2014 01:30 MST2.48P  37.1P  0.00P  
10/07/2014 01:45 MST2.48P  37.1P  0.00P  
10/07/2014 02:00 MST2.48P  37.1P  0.00P  
10/07/2014 02:15 MST2.48P  37.1P  0.00P  
10/07/2014 02:30 MST2.49P  38.0P  0.00P  
10/07/2014 02:45 MST2.49P  38.0P  0.00P  
10/07/2014 03:00 MST2.49P  38.0P  0.00P  
10/07/2014 03:15 MST2.49P  38.0P  0.00P  
10/07/2014 03:30 MST2.48P  37.1P  0.00P  
10/07/2014 03:45 MST2.47P  36.1P  0.00P  
10/07/2014 04:00 MST2.47P  36.1P  0.00P  
10/07/2014 04:15 MST2.48P  37.1P  0.00P  
10/07/2014 04:30 MST2.48P  37.1P  0.00P  
10/07/2014 04:45 MST2.49P  38.0P  0.00P  
10/07/2014 05:00 MST2.49P  38.0P  0.00P  
10/07/2014 05:15 MST2.48P  37.1P  0.00P  
10/07/2014 05:30 MST2.48P  37.1P  0.00P  
10/07/2014 05:45 MST2.47P  36.1P  0.00P  
10/07/2014 06:00 MST2.48P  37.1P  0.00P  
10/07/2014 06:15 MST2.47P  36.1P  0.00P  
10/07/2014 06:29 MST2.48P  37.1P  0.00P  
10/07/2014 06:30 MST2.48P  37.1P  0.00P  
10/07/2014 06:44 MST2.48P  37.1P  0.00P  
10/07/2014 06:45 MST2.48P  37.1P  0.00P  
10/07/2014 07:00 MST2.47P  36.1P  0.00P  
10/07/2014 07:15 MST2.48P  37.1P  0.00P  
10/07/2014 07:30 MST2.49P  38.0P  0.00P  
10/07/2014 07:45 MST2.48P  37.1P  0.00P  
10/07/2014 08:00 MST2.48P  37.1P  0.00P  
10/07/2014 08:15 MST2.47P  36.1P  0.00P  
10/07/2014 08:30 MST2.47P  36.1P  0.00P  
10/07/2014 08:45 MST2.48P  37.1P  0.00P  
10/07/2014 09:00 MST2.49P  38.0P  0.00P  
10/07/2014 09:15 MST2.48P  37.1P  0.00P  
10/07/2014 09:30 MST2.48P  37.1P  0.00P  
10/07/2014 09:45 MST2.48P  37.1P  0.00P  
10/07/2014 10:00 MST2.48P  37.1P  0.00P  
10/07/2014 10:15 MST2.47P  36.1P  0.00P  
10/07/2014 10:30 MST2.48P  37.1P  0.00P  
10/07/2014 10:45 MST2.48P  37.1P  0.00P  
10/07/2014 11:00 MST2.49P  38.0P  0.00P  
10/07/2014 11:15 MST2.48P  37.1P  0.00P  
10/07/2014 11:30 MST2.47P  36.1P  0.00P  
10/07/2014 11:45 MST2.49P  38.0P  0.00P  
10/07/2014 12:00 MST2.48P  37.1P  0.00P  
10/07/2014 12:15 MST2.49P  38.0P  0.00P  
10/07/2014 12:30 MST2.47P  36.1P  0.00P  
10/07/2014 12:45 MST2.46P  35.2P  0.00P  
10/07/2014 13:00 MST2.48P  37.1P  0.00P  
10/07/2014 13:15 MST2.48P  37.1P  0.00P  
10/07/2014 13:30 MST2.48P  37.1P  0.00P  
10/07/2014 13:45 MST2.48P  37.1P  0.00P  
10/07/2014 14:00 MST2.47P  36.1P  0.00P  
10/07/2014 14:15 MST2.48P  37.1P  0.06P  
10/07/2014 14:30 MST2.49P  38.0P  0.02P  
10/07/2014 14:45 MST2.49P  38.0P  0.00P  
10/07/2014 15:00 MST2.45P  34.3P  0.01P  
10/07/2014 15:15 MST2.48P  37.1P  0.01P  
10/07/2014 15:30 MST2.48P  37.1P  0.01P  
10/07/2014 15:45 MST2.47P  36.1P  0.00P  
10/07/2014 16:00 MST2.48P  37.1P  0.00P  
10/07/2014 16:15 MST2.48P  37.1P  0.00P  
10/07/2014 16:30 MST2.46P  35.2P  0.00P  
10/07/2014 16:45 MST2.46P  35.2P  0.00P  
10/07/2014 17:00 MST2.47P  36.1P  0.00P  
10/07/2014 17:15 MST2.48P  37.1P  0.00P  
10/07/2014 17:30 MST2.48P  37.1P  0.00P  
10/07/2014 17:45 MST2.48P  37.1P  0.00P  
10/07/2014 18:00 MST2.47P  36.1P  0.00P  
10/07/2014 18:15 MST2.46P  35.2P  0.00P  
10/07/2014 18:30 MST2.46P  35.2P  0.00P  
10/07/2014 18:45 MST2.48P  37.1P  0.00P  
10/07/2014 19:00 MST2.48P  37.1P  0.00P  
10/07/2014 19:15 MST2.47P  36.1P  0.00P  
10/07/2014 19:30 MST2.48P  37.1P  0.00P  
10/07/2014 19:45 MST2.47P  36.1P  0.02P  
10/07/2014 20:00 MST2.50P  39.0P  0.18P  
10/07/2014 20:15 MST2.50P  39.0P  0.01P  
10/07/2014 20:30 MST2.51P  40.0P  0.00P  
10/07/2014 20:45 MST2.50P  39.0P  0.00P  
10/07/2014 21:00 MST2.50P  39.0P  0.00P  
10/07/2014 21:15 MST2.51P  40.0P  0.00P  
10/07/2014 21:30 MST2.51P  40.0P  0.00P  
10/07/2014 21:45 MST2.50P  39.0P  0.00P  
10/07/2014 22:00 MST2.51P  40.0P  0.00P  
10/07/2014 22:15 MST2.50P  39.0P  0.02P  
10/07/2014 22:30 MST2.49P  38.0P  0.00P  
10/07/2014 22:45 MST2.49P  38.0P  0.01P  
10/07/2014 23:00 MST2.50P  39.0P  0.05P  
10/07/2014 23:15 MST2.51P  40.0P  0.06P  
10/07/2014 23:30 MST2.50P  39.0P  0.04P  
10/07/2014 23:45 MST2.51P  40.0P  0.05P  
10/08/2014 00:00 MST2.53P  42.0P  0.02P  
10/08/2014 00:15 MST2.51P  40.0P  0.02P  
10/08/2014 00:30 MST2.51P  40.0P  0.01P  
10/08/2014 00:45 MST2.51P  40.0P  0.00P  
10/08/2014 01:00 MST2.52P  41.0P  0.00P  
10/08/2014 01:15 MST2.52P  41.0P  0.00P  
10/08/2014 01:30 MST2.52P  41.0P  0.01P  
10/08/2014 01:45 MST2.51P  40.0P  0.00P  
10/08/2014 02:00 MST2.51P  40.0P  0.00P  
10/08/2014 02:15 MST2.51P  40.0P  0.00P  
10/08/2014 02:30 MST2.52P  41.0P  0.00P  
10/08/2014 02:45 MST2.52P  41.0P  0.00P  
10/08/2014 03:00 MST2.52P  41.0P  0.01P  
10/08/2014 03:15 MST2.53P  42.0P  0.00P  
10/08/2014 03:30 MST2.53P  42.0P  0.00P  
10/08/2014 03:45 MST2.52P  41.0P  0.00P  
10/08/2014 04:00 MST2.52P  41.0P  0.00P  
10/08/2014 04:15 MST2.52P  41.0P  0.00P  
10/08/2014 04:30 MST2.53P  42.0P  0.00P  
10/08/2014 04:45 MST2.52P  41.0P  0.00P  
10/08/2014 05:00 MST2.52P  41.0P  0.00P  
10/08/2014 05:15 MST2.50P  39.0P  0.00P  
10/08/2014 05:30 MST2.51P  40.0P  0.00P  
10/08/2014 05:45 MST2.52P  41.0P  0.00P  
10/08/2014 06:00 MST2.51P  40.0P  0.00P  
10/08/2014 06:15 MST2.50P  39.0P  0.00P  
10/08/2014 06:29 MST2.51P  40.0P  0.00P  
10/08/2014 06:30 MST2.51P  40.0P  0.00P  
10/08/2014 06:44 MST2.51P  40.0P  0.00P  
10/08/2014 06:45 MST2.51P  40.0P  0.00P  
10/08/2014 07:00 MST2.51P  40.0P  0.00P  
10/08/2014 07:15 MST2.51P  40.0P  0.00P  
10/08/2014 07:30 MST2.51P  40.0P  0.00P  
10/08/2014 07:45 MST2.51P  40.0P  0.00P  
10/08/2014 08:00 MST2.51P  40.0P  0.00P  
10/08/2014 08:15 MST2.51P  40.0P  0.00P  
10/08/2014 08:30 MST2.51P  40.0P  0.00P  
10/08/2014 08:45 MST2.50P  39.0P  0.00P  
10/08/2014 09:00 MST2.49P  38.0P  0.00P  
10/08/2014 09:15 MST2.49P  38.0P  0.00P  
10/08/2014 09:30 MST2.50P  39.0P  0.00P  
10/08/2014 09:45 MST2.51P  40.0P  0.00P  
10/08/2014 10:00 MST2.50P  39.0P  0.00P  
10/08/2014 10:15 MST2.49P  38.0P  0.00P  
10/08/2014 10:30 MST2.50P  39.0P  0.00P  
10/08/2014 10:45 MST2.50P  39.0P  0.00P  
10/08/2014 11:00 MST2.49P  38.0P  0.00P  
10/08/2014 11:15 MST2.49P  38.0P  0.00P  
10/08/2014 11:30 MST2.50P  39.0P  0.00P  
10/08/2014 11:45 MST2.50P  39.0P  0.00P  
10/08/2014 12:00 MST2.51P  40.0P  0.00P  
10/08/2014 12:15 MST2.71P  40.0P  0.00P  
10/08/2014 12:30 MST2.58P  40.0P  0.00P  
10/08/2014 12:45 MST2.60P  39.0P  0.00P  
10/08/2014 13:00 MST2.66P  38.0P  0.00P  
10/08/2014 13:15 MST2.65P  39.0P  0.00P  
10/08/2014 13:30 MST2.68P  38.0P  0.00P  
10/08/2014 13:45 MST2.65P  39.0P  0.00P  
10/08/2014 14:00 MST2.61P  40.0P  0.00P  
10/08/2014 14:15 MST2.64P  39.0P  0.00P  
10/08/2014 14:30 MST2.60P  38.0P  0.00P  
10/08/2014 14:45 MST2.60P  38.0P  0.00P  
10/08/2014 15:00 MST2.59P  39.0P  0.01P  
10/08/2014 15:15 MST2.59P  40.0P  0.00P  
10/08/2014 15:30 MST2.63P  39.0P  0.07P  
10/08/2014 15:45 MST2.65P  41.0P  0.07P  
10/08/2014 16:00 MST2.63P  41.0P  0.09P  
10/08/2014 16:15 MST2.64P  42.0P  0.04P  
10/08/2014 16:30 MST2.64P  41.0P  0.05P  
10/08/2014 16:45 MST2.64P  42.0P  0.03P  
10/08/2014 17:00 MST2.65P  43.1P  0.04P  
10/08/2014 17:15 MST2.66P  44.1P  0.03P  
10/08/2014 17:30 MST2.65P  42.0P  0.03P  
10/08/2014 17:45 MST2.66P  43.1P  0.01P  
10/08/2014 18:00 MST2.64P  43.1P  0.00P  
10/08/2014 18:15 MST2.64P  44.1P  0.00P  
10/08/2014 18:30 MST2.65P  44.1P  0.01P  
10/08/2014 18:45 MST2.66P  45.2P  0.03P  
10/08/2014 19:00 MST2.66P  44.1P  0.00P  
10/08/2014 19:15 MST2.65P  43.1P  0.00P  
10/08/2014 19:30 MST2.64P  41.0P  0.00P  
10/08/2014 19:45 MST2.65P  42.0P  0.00P  
10/08/2014 20:00 MST2.65P  45.2P  0.00P  
10/08/2014 20:15 MST2.64P  44.1P  0.00P  
10/08/2014 20:30 MST2.68P  43.1P  0.00P  
10/08/2014 20:45 MST2.65P  45.2P  0.00P  
10/08/2014 21:00 MST2.67P  45.2P  0.00P  
10/08/2014 21:15 MST2.79P  55.6P  0.00P  
10/08/2014 21:30 MST3.36P  141P  0.00P  
10/08/2014 21:45 MST3.48P  195P  0.00P  
10/08/2014 22:00 MST3.50P  203P  0.00P  
10/08/2014 22:15 MST3.52P  201P  0.00P  
10/08/2014 22:30 MST3.45P  170P  0.00P  
10/08/2014 22:45 MST3.39P  170P  0.00P  
10/08/2014 23:00 MST3.35P  160P  0.00P  
10/08/2014 23:15 MST3.30P  141P  0.00P  
10/08/2014 23:30 MST3.27P  141P  0.00P  
10/08/2014 23:45 MST3.24P  139P  0.00P  
10/09/2014 00:00 MST3.25P  139P  0.00P  
10/09/2014 00:15 MST3.29P  150P  0.00P  
10/09/2014 00:30 MST3.33P  150P  0.00P  
10/09/2014 00:45 MST3.38P  176P  0.01P  
10/09/2014 01:00 MST3.41P  165P  0.00P  
10/09/2014 01:15 MST3.39P  170P  0.00P  
10/09/2014 01:30 MST3.37P  168P  0.00P  
10/09/2014 01:45 MST3.36P  155P  0.00P  
10/09/2014 02:00 MST3.35P  160P  0.00P  
10/09/2014 02:15 MST3.30P  153P  0.00P  
10/09/2014 02:30 MST3.29P  146P  0.00P  
10/09/2014 02:45 MST3.27P  148P  0.00P  
10/09/2014 03:00 MST3.23P  132P  0.00P  
10/09/2014 03:15 MST3.20P  132P  0.00P  
10/09/2014 03:30 MST3.22P  125P  0.00P  
10/09/2014 03:45 MST3.21P  128P  0.00P  
10/09/2014 04:00 MST3.15P  125P  0.00P  
10/09/2014 04:15 MST3.17P  125P  0.00P  
10/09/2014 04:30 MST3.20P  139P  0.00P  
10/09/2014 04:45 MST3.32P  158P  0.00P  
10/09/2014 05:00 MST3.43P  186P  0.00P  
10/09/2014 05:15 MST3.51P  212P  0.00P  
10/09/2014 05:30 MST3.58P  218P  0.00P  
10/09/2014 05:45 MST3.60P  242P  0.00P  
10/09/2014 06:00 MST3.65P  242P  0.00P  
10/09/2014 06:15 MST3.70P  264P  0.00P  
10/09/2014 06:29 MST3.95P  308P  0.00P  
10/09/2014 06:30 MST3.95P  308P  0.00P  
10/09/2014 06:44 MST4.21P  433P  0.00P  
10/09/2014 06:45 MST4.21P  433P  0.00P  
10/09/2014 06:59 MST4.43P  518P  0.00P  
10/09/2014 07:00 MST4.43P  518P  0.00P  
10/09/2014 07:14 MST4.67P  586P  0.00P  
10/09/2014 07:15 MST4.67P  586P  0.00P  
10/09/2014 07:29 MST4.67P  689P  0.00P  
10/09/2014 07:30 MST4.67P  689P  0.00P  
10/09/2014 07:44 MST4.67P  745P  0.00P  
10/09/2014 07:45 MST4.67P  745P  0.00P  
10/09/2014 07:59 MST4.72P  738P  0.00P  
10/09/2014 08:00 MST4.72P  738P  0.00P  
10/09/2014 08:14 MST4.86P  783P  0.00P  
10/09/2014 08:15 MST4.86P  783P  0.00P  
10/09/2014 08:29 MST4.85P  803P  0.00P  
10/09/2014 08:30 MST4.85P  803P  0.00P  
10/09/2014 08:44 MST4.93P  914P  0.00P  
10/09/2014 08:45 MST4.93P  914P  0.00P  
10/09/2014 08:59 MST5.05P  899P  0.00P  
10/09/2014 09:00 MST5.05P  899P  0.00P  
10/09/2014 09:14 MST4.97P  950P  0.00P  
10/09/2014 09:15 MST4.97P  950P  0.00P  
10/09/2014 09:29 MST5.22P  1,020P  0.00P  
10/09/2014 09:30 MST5.22P  1,020P  0.00P  
10/09/2014 09:44 MST5.04P  1,090P  0.00P  
10/09/2014 09:45 MST5.04P  1,090P  0.00P  
10/09/2014 09:59 MST5.18P  950P  0.00P  
10/09/2014 10:00 MST5.18P  950P  0.00P  
10/09/2014 10:14 MST4.91P  943P  0.00P  
10/09/2014 10:15 MST4.91P  943P  0.00P  
10/09/2014 10:29 MST5.01P  950P  0.00P  
10/09/2014 10:30 MST5.01P  950P  0.00P  
10/09/2014 10:44 MST5.03P  1,000P  0.00P  
10/09/2014 10:45 MST5.03P  1,000P  0.00P  
10/09/2014 10:59 MST4.99P  1,150P  0.00P  
10/09/2014 11:00 MST4.99P  1,150P  0.00P  
10/09/2014 11:14 MST5.05P  1,130P  0.00P  
10/09/2014 11:15 MST5.05P  1,130P  0.00P  
10/09/2014 11:29 MST5.09P  1,090P  0.00P  
10/09/2014 11:30 MST5.09P  1,090P  0.00P  
10/09/2014 11:44 MST5.17P  1,200P  0.00P  
10/09/2014 11:45 MST5.17P  1,200P  0.00P  
10/09/2014 11:59 MST5.18P  1,220P  0.00P  
10/09/2014 12:00 MST5.18P  1,220P  0.00P  
10/09/2014 12:14 MST5.17P  1,110P  0.00P  
10/09/2014 12:15 MST5.17P  1,110P  0.00P  
10/09/2014 12:29 MST5.16P  1,200P  0.00P  
10/09/2014 12:30 MST5.16P  1,200P  0.00P  
10/09/2014 12:44 MST5.15P  1,100P  0.00P  
10/09/2014 12:45 MST5.15P  1,100P  0.00P  
10/09/2014 12:59 MST5.07P  1,130P  0.00P  
10/09/2014 13:00 MST5.07P  1,130P  0.00P  
10/09/2014 13:14 MST5.19P  1,110P  0.00P  
10/09/2014 13:15 MST5.19P  1,110P  0.00P  
10/09/2014 13:29 MST5.13P  1,160P  0.00P  
10/09/2014 13:30 MST5.13P  1,160P  0.00P  
10/09/2014 13:44 MST5.08P  1,090P  0.00P  
10/09/2014 13:45 MST5.08P  1,090P  0.00P  
10/09/2014 13:59 MST5.15P  1,030P  0.00P  
10/09/2014 14:00 MST5.15P  1,030P  0.00P  
10/09/2014 14:14 MST5.11P  1,070P  0.00P  
10/09/2014 14:15 MST5.11P  1,070P  0.00P  
10/09/2014 14:29 MST5.12P  1,120P  0.00P  
10/09/2014 14:30 MST5.12P  1,120P  0.00P  
10/09/2014 14:44 MST5.13P  1,100P  0.00P  
10/09/2014 14:45 MST5.13P  1,100P  0.00P  
10/09/2014 14:59 MST5.08P  1,100P  0.00P  
10/09/2014 15:00 MST5.08P  1,100P  0.00P  
10/09/2014 15:14 MST5.09P  1,110P  0.00P  
10/09/2014 15:15 MST5.09P  1,110P  0.00P  
10/09/2014 15:29 MST5.04P  1,050P  0.00P  
10/09/2014 15:30 MST5.04P  1,050P  0.00P  
10/09/2014 15:44 MST5.02P  1,040P  0.00P  
10/09/2014 15:45 MST5.02P  1,040P  0.00P  
10/09/2014 15:59 MST4.96P  1,050P  0.00P  
10/09/2014 16:00 MST4.96P  1,050P  0.00P  
10/09/2014 16:14 MST5.01P  1,010P  0.00P  
10/09/2014 16:15 MST5.01P  1,010P  0.00P  
10/09/2014 16:29 MST5.03P  1,010P  0.00P  
10/09/2014 16:30 MST5.03P  1,010P  0.00P  
10/09/2014 16:44 MST5.00P  972P  0.00P  
10/09/2014 16:45 MST5.00P  972P  0.00P  
10/09/2014 16:59 MST4.92P  995P  0.00P  
10/09/2014 17:00 MST4.92P  995P  0.00P  
10/09/2014 17:14 MST4.91P  972P  0.00P  
10/09/2014 17:15 MST4.91P  972P  0.00P  
10/09/2014 17:29 MST4.93P  958P  0.00P  
10/09/2014 17:30 MST4.93P  958P  0.00P  
10/09/2014 17:44 MST4.83P  958P  0.00P  
10/09/2014 17:45 MST4.83P  958P  0.00P  
10/09/2014 17:59 MST4.80P  899P  0.00P  
10/09/2014 18:00 MST4.80P  899P  0.00P  
10/09/2014 18:14 MST4.79P  878P  0.00P  
10/09/2014 18:15 MST4.79P  878P  0.00P  
10/09/2014 18:29 MST4.74P  871P  0.00P  
10/09/2014 18:30 MST4.74P  871P  0.00P  
10/09/2014 18:44 MST4.72P  830P  0.00P  
10/09/2014 18:45 MST4.72P  830P  0.00P  
10/09/2014 18:59 MST4.73P  823P  0.00P  
10/09/2014 19:00 MST4.73P  823P  0.00P  
10/09/2014 19:14 MST4.64P  803P  0.00P  
10/09/2014 19:15 MST4.64P  803P  0.00P  
10/09/2014 19:29 MST4.59P  777P  0.00P  
10/09/2014 19:30 MST4.59P  777P  0.00P  
10/09/2014 19:44 MST4.61P  738P  0.00P  
10/09/2014 19:45 MST4.61P  738P  0.00P  
10/09/2014 19:59 MST4.60P  726P  0.00P  
10/09/2014 20:00 MST4.60P  726P  0.00P  
10/09/2014 20:14 MST4.58P  707P  0.00P  
10/09/2014 20:15 MST4.58P  707P  0.00P  
10/09/2014 20:29 MST4.54P  689P  0.00P  
10/09/2014 20:30 MST4.54P  689P  0.00P  
10/09/2014 20:44 MST4.53P  665P  0.00P  
10/09/2014 20:45 MST4.53P  665P  0.00P  
10/09/2014 20:59 MST4.46P  654P  0.00P  
10/09/2014 21:00 MST4.46P  654P  0.00P  
10/09/2014 21:14 MST4.50P  631P  0.00P  
10/09/2014 21:15 MST4.50P  631P  0.00P  
10/09/2014 21:29 MST4.40P  608P  0.00P  
10/09/2014 21:30 MST4.40P  608P  0.00P  
10/09/2014 21:44 MST4.40P  597P  0.00P  
10/09/2014 21:45 MST4.40P  597P  0.00P  
10/09/2014 21:59 MST4.38P  608P  0.00P  
10/09/2014 22:00 MST4.38P  608P  0.00P  
10/09/2014 22:14 MST4.38P  586P  0.00P  
10/09/2014 22:15 MST4.38P  586P  0.00P  
10/09/2014 22:29 MST4.33P  565P  0.00P  
10/09/2014 22:30 MST4.33P  565P  0.00P  
10/09/2014 22:44 MST4.31P  549P  0.00P  
10/09/2014 22:45 MST4.31P  549P  0.00P  
10/09/2014 22:59 MST4.29P  544P  0.00P  
10/09/2014 23:00 MST4.29P  544P  0.00P  
10/09/2014 23:14 MST4.30P  529P  0.00P  
10/09/2014 23:15 MST4.30P  529P  0.00P  
10/09/2014 23:29 MST4.23P  513P  0.00P  
10/09/2014 23:30 MST4.23P  513P  0.00P  
10/09/2014 23:44 MST4.23P  494P  0.00P  
10/09/2014 23:45 MST4.23P  494P  0.00P  
10/10/2014 00:00 MST4.22P  504P  0.00P  
10/10/2014 00:15 MST4.19P  484P  0.00P  
10/10/2014 00:30 MST4.20P  489P  0.00P  
10/10/2014 00:45 MST4.17P  461P  0.00P  
10/10/2014 01:00 MST4.16P  461P  0.00P  
10/10/2014 01:15 MST4.13P  456P  0.00P  
10/10/2014 01:30 MST4.14P  447P  0.00P  
10/10/2014 01:45 MST4.10P  447P  0.00P  
10/10/2014 02:00 MST4.10P  447P  0.00P  
10/10/2014 02:15 MST4.08P  438P  0.00P  
10/10/2014 02:30 MST4.07P  429P  0.00P  
10/10/2014 02:45 MST4.05P  420P  0.00P  
10/10/2014 03:00 MST4.02P  416P  0.00P  
10/10/2014 03:15 MST3.99P  407P  0.00P  
10/10/2014 03:30 MST4.02P  398P  0.00P  
10/10/2014 03:45 MST3.96P  394P  0.00P  
10/10/2014 04:00 MST3.97P  382P  0.00P  
10/10/2014 04:15 MST3.98P  382P  0.00P  
10/10/2014 04:30 MST3.96P  374P  0.00P  
10/10/2014 04:45 MST3.95P  369P  0.00P  
10/10/2014 05:00 MST3.94P  357P  0.00P  
10/10/2014 05:15 MST3.88P  357P  0.00P  
10/10/2014 05:30 MST3.91P  354P  0.00P  
10/10/2014 05:45 MST3.90P  342P  0.00P  
10/10/2014 06:00 MST3.90P  342P  0.00P  
10/10/2014 06:15 MST3.86P  342P  0.00P  
10/10/2014 06:30 MST3.83P  338P  0.00P  
10/10/2014 06:45 MST3.84P  331P  0.01P  
10/10/2014 07:00 MST3.83P  323P  0.00P  
10/10/2014 07:15 MST3.81P  316P  0.00P  
10/10/2014 07:30 MST3.79P  312P  0.00P  
10/10/2014 07:45 MST3.77P  312P  0.00P  
10/10/2014 08:00 MST3.78P  312P  0.00P  
10/10/2014 08:15 MST3.76P  305P  0.00P  
10/10/2014 08:30 MST3.75P  294P  0.00P  
10/10/2014 08:45 MST3.72P  291P  0.00P  
10/10/2014 09:00 MST3.73P  287P  0.00P  
10/10/2014 09:15 MST3.70P  287P  0.00P  
10/10/2014 09:30 MST3.71P  284P  0.00P  
10/10/2014 09:45 MST3.68P  274P  0.00P  
10/10/2014 10:00 MST3.69P  271P  0.00P  
10/10/2014 10:15 MST3.64P  271P  0.00P  
10/10/2014 10:30 MST3.65P  264P  0.00P  
10/10/2014 10:45 MST3.65P  261P  0.00P  
10/10/2014 11:00 MST3.63P  271P  0.00P  
10/10/2014 11:15 MST3.62P  264P  0.00P  
10/10/2014 11:30 MST3.61P  258P  0.00P  
10/10/2014 11:45 MST3.62P  248P  0.00P  
10/10/2014 12:00 MST3.60P  254P  0.00P  
10/10/2014 12:15 MST3.59P  245P  0.00P  
10/10/2014 12:30 MST3.56P  245P  0.00P  
10/10/2014 12:45 MST3.56P  239P  0.00P  
10/10/2014 13:00 MST3.56P  236P  0.00P  
10/10/2014 13:15 MST3.53P  239P  0.00P  
10/10/2014 13:30 MST3.52P  230P  0.00P  
10/10/2014 13:45 MST3.54P  230P  0.00P  
10/10/2014 14:00 MST3.52P  227P  0.00P  
10/10/2014 14:15 MST3.51P  230P  0.00P  
10/10/2014 14:30 MST3.50P  218P  0.00P  
10/10/2014 14:45 MST3.49P  227P  0.00P  
10/10/2014 15:00 MST3.47P  218P  0.00P  
10/10/2014 15:15 MST3.47P  215P  0.00P  
10/10/2014 15:30 MST3.45P  212P  0.00P  
10/10/2014 15:45 MST3.45P  203P  0.00P  
10/10/2014 16:00 MST3.43P  203P  0.00P  
10/10/2014 16:15 MST3.43P  206P  0.00P  
10/10/2014 16:30 MST3.43P  203P  0.00P  
10/10/2014 16:45 MST3.43P  203P  0.00P  
10/10/2014 17:00 MST3.41P  201P  0.00P  
10/10/2014 17:15 MST3.39P  198P  0.00P  
10/10/2014 17:30 MST3.39P  195P  0.00P  
10/10/2014 17:45 MST3.37P  192P  0.00P  
10/10/2014 18:00 MST3.36P  189P  0.00P  
10/10/2014 18:15 MST3.36P  186P  0.00P  
10/10/2014 18:30 MST3.36P  186P  0.00P  
10/10/2014 18:45 MST3.35P  184P  0.00P  
10/10/2014 19:00 MST3.35P  181P  0.00P  
10/10/2014 19:15 MST3.33P  176P  0.00P  
10/10/2014 19:30 MST3.31P  181P  0.00P  
10/10/2014 19:45 MST3.32P  176P  0.00P  
10/10/2014 20:00 MST3.31P  176P  0.00P  
10/10/2014 20:15 MST3.29P  168P  0.00P  
10/10/2014 20:30 MST3.30P  170P  0.00P  
10/10/2014 20:45 MST3.29P  170P  0.00P  
10/10/2014 21:00 MST3.28P  165P  0.00P  
10/10/2014 21:15 MST3.28P  168P  0.00P  
10/10/2014 21:30 MST3.28P  163P  0.00P  
10/10/2014 21:45 MST3.27P  163P  0.00P  
10/10/2014 22:00 MST3.26P  160P  0.00P  
10/10/2014 22:15 MST3.24P  160P  0.00P  
10/10/2014 22:30 MST3.24P  160P  0.00P  
10/10/2014 22:45 MST3.24P  158P  0.00P  
10/10/2014 23:00 MST3.23P  158P  0.00P  
10/10/2014 23:15 MST3.22P  158P  0.00P  
10/10/2014 23:29 MST3.21P  150P  0.00P  
10/10/2014 23:30 MST3.21P  150P  0.00P  
10/10/2014 23:44 MST3.21P  150P  0.00P  
10/10/2014 23:45 MST3.21P  150P  0.00P  
10/11/2014 00:00 MST3.21P  148P  0.00P  
10/11/2014 00:15 MST3.20P  146P  0.00P  
10/11/2014 00:30 MST3.20P  150P  0.00P  
10/11/2014 00:45 MST3.20P  146P  0.00P  
10/11/2014 01:00 MST3.17P  146P  0.00P  
10/11/2014 01:15 MST3.19P  148P  0.00P  
10/11/2014 01:30 MST3.17P  143P  0.00P  
10/11/2014 01:45 MST3.16P  141P  0.00P  
10/11/2014 02:00 MST3.16P  139P  0.00P  
10/11/2014 02:15 MST3.16P  134P  0.00P  
10/11/2014 02:30 MST3.15P  136P  0.00P  
10/11/2014 02:45 MST3.15P  141P  0.00P  
10/11/2014 03:00 MST3.15P  134P  0.00P  
10/11/2014 03:15 MST3.14P  134P  0.00P  
10/11/2014 03:30 MST3.14P  134P  0.00P  
10/11/2014 03:45 MST3.14P  128P  0.00P  
10/11/2014 04:00 MST3.13P  130P  0.00P  
10/11/2014 04:15 MST3.13P  128P  0.00P  
10/11/2014 04:30 MST3.12P  132P  0.00P  
10/11/2014 04:45 MST3.12P  128P  0.00P  
10/11/2014 05:00 MST3.12P  128P  0.00P  
10/11/2014 05:15 MST3.09P  128P  0.00P  
10/11/2014 05:30 MST3.09P  130P  0.00P  
10/11/2014 05:45 MST3.10P  128P  0.00P  
10/11/2014 06:00 MST3.10P  125P  0.00P  
10/11/2014 06:15 MST3.10P  121P  0.00P  
10/11/2014 06:30 MST3.09P  119P  0.00P  
10/11/2014 06:45 MST3.08P  117P  0.00P  
10/11/2014 07:00 MST3.08P  119P  0.00P  
10/11/2014 07:15 MST3.07P  117P  0.00P  
10/11/2014 07:30 MST3.06P  119P  0.00P  
10/11/2014 07:45 MST3.05P  117P  0.00P  
10/11/2014 08:00 MST3.05P  115P  0.00P  
10/11/2014 08:15 MST3.06P  117P  0.00P  
10/11/2014 08:30 MST3.06P  117P  0.00P  
10/11/2014 08:45 MST3.03P  117P  0.00P  
10/11/2014 09:00 MST3.05P  113P  0.00P  
10/11/2014 09:15 MST3.04P  111P  0.00P  
10/11/2014 09:30 MST3.04P  113P  0.00P  
10/11/2014 09:45 MST3.03P  113P  0.00P  
10/11/2014 10:00 MST3.04P  109P  0.00P  
10/11/2014 10:15 MST3.03P  107P  0.00P  
10/11/2014 10:30 MST3.03P  107P  0.00P  
10/11/2014 10:45 MST3.01P  105P  0.00P  
10/11/2014 11:00 MST3.01P  105P  0.00P  
10/11/2014 11:15 MST3.02P  104P  0.00P  
10/11/2014 11:30 MST3.00P  104P  0.00P  
10/11/2014 11:45 MST3.02P  104P  0.00P  
10/11/2014 12:00 MST3.00P  104P  0.00P  
10/11/2014 12:15 MST3.01P  98.0P  0.00P  
10/11/2014 12:30 MST3.00P  102P  0.00P  
10/11/2014 12:45 MST3.00P  98.0P  0.00P  
10/11/2014 13:00 MST2.99P  99.8P  0.00P  
10/11/2014 13:15 MST2.99P  98.0P  0.00P  
10/11/2014 13:30 MST2.99P  98.0P  0.00P  
10/11/2014 13:45 MST2.98P  94.4P  0.00P  
10/11/2014 14:00 MST2.99P  96.2P  0.00P  
10/11/2014 14:15 MST2.96P  92.7P  0.00P  
10/11/2014 14:30 MST2.96P  94.4P  0.00P  
10/11/2014 14:45 MST2.97P  94.4P  0.00P  
10/11/2014 15:00 MST2.97P  92.7P  0.00P  
10/11/2014 15:15 MST2.95P  91.0P  0.00P  
10/11/2014 15:30 MST2.95P  91.0P  0.00P  
10/11/2014 15:45 MST2.95P  89.3P  0.00P  
10/11/2014 16:00 MST2.95P  91.0P  0.00P  
10/11/2014 16:15 MST2.96P  91.0P  0.00P  
10/11/2014 16:30 MST2.94P  89.3P  0.00P  
10/11/2014 16:45 MST2.94P  87.6P  0.00P  
10/11/2014 17:00 MST2.93P  89.3P  0.00P  
10/11/2014 17:15 MST2.93P  89.3P  0.00P  
10/11/2014 17:30 MST2.93P  85.9P  0.00P  
10/11/2014 17:45 MST2.93P  85.9P  0.00P  
10/11/2014 18:00 MST2.92P  85.9P  0.00P  
10/11/2014 18:15 MST2.93P  85.9P  0.00P  
10/11/2014 18:30 MST2.92P  85.9P  0.00P  
10/11/2014 18:45 MST2.91P  87.6P  0.00P  
10/11/2014 19:00 MST2.92P  87.6P  0.00P  
10/11/2014 19:15 MST2.91P  84.3P  0.00P  
10/11/2014 19:30 MST2.90P  82.6P  0.00P  
10/11/2014 19:45 MST2.90P  82.6P  0.00P  
10/11/2014 20:00 MST2.91P  84.3P  0.00P  
10/11/2014 20:15 MST2.90P  81.0P  0.00P  
10/11/2014 20:30 MST2.90P  81.0P  0.00P  
10/11/2014 20:45 MST2.89P  79.5P  0.00P  
10/11/2014 21:00 MST2.88P  84.3P  0.00P  
10/11/2014 21:15 MST2.88P  79.5P  0.00P  
10/11/2014 21:30 MST2.88P  81.0P  0.00P  
10/11/2014 21:45 MST2.88P  77.9P  0.00P  
10/11/2014 22:00 MST2.89P  76.4P  0.00P  
10/11/2014 22:15 MST2.88P  77.9P  0.00P  
10/11/2014 22:30 MST2.88P  74.8P  0.00P  
10/11/2014 22:45 MST2.87P  76.4P  0.00P  
10/11/2014 23:00 MST2.87P  79.5P  0.00P  
10/11/2014 23:15 MST2.86P  77.9P  0.00P  
10/11/2014 23:29 MST2.87P  73.4P  0.00P  
10/11/2014 23:30 MST2.87P  73.4P  0.00P  
10/11/2014 23:44 MST2.86P  74.8P  0.00P  
10/11/2014 23:45 MST2.86P  74.8P  0.00P  
10/12/2014 00:00 MST2.86P  74.8P  0.00P  
10/12/2014 00:15 MST2.87P  74.8P  0.00P  
10/12/2014 00:30 MST2.86P  77.9P  0.00P  
10/12/2014 00:45 MST2.85P  74.8P  0.00P  
10/12/2014 01:00 MST2.86P  74.8P  0.00P  
10/12/2014 01:15 MST2.86P  73.4P  0.00P  
10/12/2014 01:30 MST2.85P  76.4P  0.00P  
10/12/2014 01:45 MST2.85P  73.4P  0.00P  
10/12/2014 02:00 MST2.85P  73.4P  0.00P  
10/12/2014 02:15 MST2.84P  73.4P  0.00P  
10/12/2014 02:30 MST2.83P  74.8P  0.00P  
10/12/2014 02:45 MST2.83P  71.9P  0.00P  
10/12/2014 03:00 MST2.84P  70.4P  0.00P  
10/12/2014 03:15 MST2.83P  73.4P  0.00P  
10/12/2014 03:30 MST2.83P  70.4P  0.00P  
10/12/2014 03:45 MST2.83P  70.4P  0.00P  
10/12/2014 04:00 MST2.82P  70.4P  0.00P  
10/12/2014 04:15 MST2.82P  70.4P  0.00P  
10/12/2014 04:30 MST2.81P  71.9P  0.00P  
10/12/2014 04:45 MST2.82P  70.4P  0.00P  
10/12/2014 05:00 MST2.81P  73.4P  0.00P  
10/12/2014 05:15 MST2.81P  70.4P  0.00P  
10/12/2014 05:30 MST2.80P  70.4P  0.00P  
10/12/2014 05:45 MST2.81P  70.4P  0.00P  
10/12/2014 06:00 MST2.81P  69.0P  0.00P  
10/12/2014 06:15 MST2.81P  67.6P  0.00P  
10/12/2014 06:30 MST2.81P  69.0P  0.00P  
10/12/2014 06:45 MST2.80P  69.0P  0.00P  
10/12/2014 07:00 MST2.79P  67.6P  0.00P  
10/12/2014 07:15 MST2.80P  67.6P  0.00P  
10/12/2014 07:30 MST2.80P  67.6P  0.00P  
10/12/2014 07:45 MST2.82P  67.6P  0.00P  
10/12/2014 08:00 MST2.79P  67.6P  0.00P  
10/12/2014 08:15 MST2.79P  66.2P  0.00P  
10/12/2014 08:30 MST2.79P  66.2P  0.00P  
10/12/2014 08:45 MST2.79P  64.8P  0.00P  
10/12/2014 09:00 MST2.78P  66.2P  0.00P  
10/12/2014 09:15 MST2.78P  66.2P  0.00P  
10/12/2014 09:30 MST2.78P  66.2P  0.00P  
10/12/2014 09:45 MST2.78P  66.2P  0.00P  
10/12/2014 10:00 MST2.77P  64.8P  0.00P  
10/12/2014 10:15 MST2.78P  66.2P  0.00P  
10/12/2014 10:30 MST2.77P  63.4P  0.00P  
10/12/2014 10:45 MST2.77P  63.4P  0.00P  
10/12/2014 11:00 MST2.77P  64.8P  0.00P  
10/12/2014 11:15 MST2.76P  62.1P  0.00P  
10/12/2014 11:30 MST2.76P  62.1P  0.00P  
10/12/2014 11:45 MST2.76P  64.8P  0.00P  
10/12/2014 12:00 MST2.76P  63.4P  0.00P  
10/12/2014 12:15 MST2.76P  63.4P  0.00P  
10/12/2014 12:30 MST2.76P  60.7P  0.00P  
10/12/2014 12:45 MST2.76P  62.1P  0.00P  
10/12/2014 13:00 MST2.75P  59.4P  0.00P  
10/12/2014 13:15 MST2.75P  60.7P  0.00P  
10/12/2014 13:30 MST2.75P  59.4P  0.00P  
10/12/2014 13:45 MST2.73P  59.4P  0.00P  
10/12/2014 14:00 MST2.74P  60.7P  0.00P  
10/12/2014 14:15 MST2.74P  60.7P  0.00P  
10/12/2014 14:30 MST2.73P  56.9P  0.00P  
10/12/2014 14:45 MST2.73P  59.4P  0.00P  
10/12/2014 15:00 MST2.73P  56.9P  0.00P  
10/12/2014 15:15 MST2.73P  58.2P  0.00P  
10/12/2014 15:30 MST2.73P  58.2P  0.00P  
10/12/2014 15:45 MST2.73P  54.4P  0.00P  
10/12/2014 16:00 MST2.72P  56.9P  0.00P  
10/12/2014 16:15 MST2.72P  54.4P  0.00P  
10/12/2014 16:30 MST2.72P  58.2P  0.00P  
10/12/2014 16:45 MST2.72P  54.4P  0.00P  
10/12/2014 17:00 MST2.71P  54.4P  0.00P  
10/12/2014 17:15 MST2.72P  54.4P  0.00P  
10/12/2014 17:30 MST2.71P  56.9P  0.00P  
10/12/2014 17:45 MST2.71P  56.9P  0.00P  
10/12/2014 18:00 MST2.71P  58.2P  0.00P  
10/12/2014 18:15 MST2.71P  58.2P  0.00P  
10/12/2014 18:30 MST2.71P  56.9P  0.00P  
10/12/2014 18:45 MST2.71P  56.9P  0.00P  
10/12/2014 19:00 MST2.70P  56.9P  0.00P  
10/12/2014 19:15 MST2.70P  55.6P  0.00P  
10/12/2014 19:30 MST2.70P  55.6P  0.00P  
10/12/2014 19:45 MST2.70P  56.9P  0.00P  
10/12/2014 20:00 MST2.70P  55.6P  0.00P  
10/12/2014 20:15 MST2.69P  54.4P  0.00P  
10/12/2014 20:30 MST2.70P  56.9P  0.00P  
10/12/2014 20:45 MST2.69P  54.4P  0.00P  
10/12/2014 21:00 MST2.69P  54.4P  0.00P  
10/12/2014 21:15 MST2.68P  55.6P  0.00P  
10/12/2014 21:30 MST2.68P  54.4P  0.00P  
10/12/2014 21:45 MST2.69P  53.2P  0.00P  
10/12/2014 22:00 MST2.68P  53.2P  0.00P  
10/12/2014 22:15 MST2.68P  53.2P  0.00P  
10/12/2014 22:30 MST2.67P  54.4P  0.00P  
10/12/2014 22:45 MST2.68P  54.4P  0.00P  
10/12/2014 23:00 MST2.67P  53.2P  0.00P  
10/12/2014 23:15 MST2.67P  54.4P  0.00P  
10/12/2014 23:29 MST2.68P  53.2P  0.00P  
10/12/2014 23:30 MST2.68P  53.2P  0.00P  
10/12/2014 23:44 MST2.67P  53.2P  0.00P  
10/12/2014 23:45 MST2.67P  53.2P  0.00P  
10/13/2014 00:00 MST2.66P  53.2P  0.00P  
10/13/2014 00:15 MST2.67P  53.2P  0.00P  
10/13/2014 00:30 MST2.66P  52.0P  0.00P  
10/13/2014 00:45 MST2.66P  52.0P  0.00P  
10/13/2014 01:00 MST2.66P  52.0P  0.00P  
10/13/2014 01:15 MST2.66P  52.0P  0.00P  
10/13/2014 01:30 MST2.66P  52.0P  0.00P  
10/13/2014 01:45 MST2.66P  52.0P  0.00P  
10/13/2014 02:00 MST2.66P  52.0P  0.00P  
10/13/2014 02:15 MST2.66P  50.8P  0.00P  
10/13/2014 02:30 MST2.65P  49.7P  0.00P  
10/13/2014 02:45 MST2.65P  50.8P  0.00P  
10/13/2014 03:00 MST2.65P  50.8P  0.00P  
10/13/2014 03:15 MST2.65P  50.8P  0.00P  
10/13/2014 03:30 MST2.65P  50.8P  0.00P  
10/13/2014 03:45 MST2.65P  50.8P  0.00P  
10/13/2014 04:00 MST2.65P  50.8P  0.00P  
10/13/2014 04:15 MST2.64P  49.7P  0.00P  
10/13/2014 04:30 MST2.64P  49.7P  0.00P  
10/13/2014 04:45 MST2.64P  49.7P  0.00P  
10/13/2014 05:00 MST2.64P  49.7P  0.00P  
10/13/2014 05:15 MST2.64P  50.8P  0.00P  
10/13/2014 05:30 MST2.64P  49.7P  0.00P  
10/13/2014 05:45 MST2.64P  49.7P  0.00P  
10/13/2014 06:00 MST2.63P  49.7P  0.00P  
10/13/2014 06:15 MST2.63P  48.5P  0.00P  
10/13/2014 06:30 MST2.63P  48.5P  0.00P  
10/13/2014 06:45 MST2.62P  47.4P  0.00P  
10/13/2014 07:00 MST2.63P  47.4P  0.00P  
10/13/2014 07:15 MST2.63P  48.5P  0.00P  
10/13/2014 07:30 MST2.62P  49.7P  0.00P  
10/13/2014 07:45 MST2.62P  47.4P  0.00P  
10/13/2014 08:00 MST2.62P  47.4P  0.00P  
10/13/2014 08:15 MST2.63P  47.4P  0.00P  
10/13/2014 08:30 MST2.63P  47.4P  0.00P  
10/13/2014 08:45 MST2.62P  47.4P  0.00P  
10/13/2014 09:00 MST2.62P  47.4P  0.00P  
10/13/2014 09:15 MST2.62P  46.3P  0.00P  
10/13/2014 09:30 MST2.62P  47.4P  0.00P  
10/13/2014 09:45 MST2.62P  47.4P  0.00P  
10/13/2014 10:00 MST2.61P  46.3P  0.00P  
10/13/2014 10:15 MST2.62P  46.3P  0.00P  
10/13/2014 10:30 MST2.62P  46.3P  0.00P  
10/13/2014 10:45 MST2.62P  46.3P  0.00P  
10/13/2014 11:00 MST2.61P  46.3P  0.00P  
10/13/2014 11:15 MST2.61P  46.3P  0.00P  
10/13/2014 11:30 MST2.61P  45.2P  0.00P  
10/13/2014 11:45 MST2.60P  46.3P  0.00P  
10/13/2014 12:00 MST2.61P  44.1P  0.00P  
10/13/2014 12:15 MST2.60P  46.3P  0.00P  
10/13/2014 12:30 MST2.61P  45.2P  0.00P  
10/13/2014 12:45 MST2.60P  45.2P  0.00P  
10/13/2014 13:00 MST2.60P  45.2P  0.00P  
10/13/2014 13:15 MST2.62P  45.2P  0.00P  
10/13/2014 13:30 MST2.61P  44.1P  0.00P  
10/13/2014 13:45 MST2.59P  44.1P  0.00P  
10/13/2014 14:00 MST2.60P  45.2P  0.00P  
10/13/2014 14:15 MST2.59P  43.1P  0.00P  
10/13/2014 14:30 MST2.59P  44.1P  0.00P  
10/13/2014 14:45 MST2.62P  44.1P  0.00P  
10/13/2014 15:00 MST2.60P  44.1P  0.00P  
10/13/2014 15:15 MST2.59P  43.1P  0.00P  
10/13/2014 15:30 MST2.59P  43.1P  0.00P  
10/13/2014 15:45 MST2.59P  43.1P  0.00P  
10/13/2014 16:00 MST2.59P  43.1P  0.00P  
10/13/2014 16:15 MST2.59P  43.1P  0.00P  
10/13/2014 16:30 MST2.59P  43.1P  0.00P  
10/13/2014 16:45 MST2.58P  43.1P  0.00P  
10/13/2014 17:00 MST2.58P  43.1P  0.00P  
10/13/2014 17:15 MST2.59P  43.1P  0.00P  
10/13/2014 17:30 MST2.58P  42.0P  0.00P  
10/13/2014 17:45 MST2.58P  43.1P  0.00P  
10/13/2014 18:00 MST2.58P  42.0P  0.00P  
10/13/2014 18:15 MST2.58P  42.0P  0.00P  
10/13/2014 18:30 MST2.58P  43.1P  0.00P  
10/13/2014 18:45 MST2.57P  43.1P  0.00P  
10/13/2014 19:00 MST2.57P  42.0P  0.00P  
10/13/2014 19:15 MST2.57P  42.0P  0.00P  
10/13/2014 19:30 MST2.57P  42.0P  0.00P  
10/13/2014 19:45 MST2.57P  42.0P  0.00P  
10/13/2014 20:00 MST2.57P  41.0P  0.00P  
10/13/2014 20:15 MST2.57P  42.0P  0.00P  
10/13/2014 20:30 MST2.57P  41.0P  0.00P  
10/13/2014 20:45 MST2.57P  42.0P  0.00P  
10/13/2014 21:00 MST2.57P  42.0P  0.00P  
10/13/2014 21:15 MST2.57P  42.0P  0.00P  
10/13/2014 21:30 MST2.56P  42.0P  0.00P  
10/13/2014 21:45 MST2.56P  41.0P  0.00P  
10/13/2014 22:00 MST2.56P  42.0P  0.00P  
10/13/2014 22:15 MST2.56P  42.0P  0.00P  
10/13/2014 22:30 MST2.56P  41.0P  0.00P  
10/13/2014 22:45 MST2.57P  41.0P  0.00P  
10/13/2014 23:00 MST2.56P  41.0P  0.00P  
10/13/2014 23:15 MST2.56P  41.0P  0.00P  
10/13/2014 23:29 MST2.56P  41.0P  0.00P  
10/13/2014 23:30 MST2.56P  41.0P  0.00P  
10/13/2014 23:44 MST2.56P  41.0P  0.00P  
10/13/2014 23:45 MST2.56P  41.0P  0.00P  
10/14/2014 00:00 MST2.56P  41.0P  0.00P  
10/14/2014 00:15 MST2.56P  41.0P  0.00P  
10/14/2014 00:30 MST2.56P  41.0P  0.00P  
10/14/2014 00:45 MST2.55P  40.0P  0.00P  
10/14/2014 01:00 MST2.55P  40.0P  0.00P  
10/14/2014 01:15 MST2.55P  41.0P  0.00P  
10/14/2014 01:30 MST2.55P  41.0P  0.00P  
10/14/2014 01:45 MST2.55P  41.0P  0.00P  
10/14/2014 02:00 MST2.55P  41.0P  0.00P  
10/14/2014 02:15 MST2.55P  41.0P  0.00P  
10/14/2014 02:30 MST2.55P  40.0P  0.00P  
10/14/2014 02:45 MST2.55P  41.0P  0.00P  
10/14/2014 03:00 MST2.55P  41.0P  0.00P  
10/14/2014 03:15 MST2.55P  40.0P  0.00P  
10/14/2014 03:30 MST2.54P  39.0P  0.00P  
10/14/2014 03:45 MST2.55P  40.0P  0.00P  
10/14/2014 04:00 MST2.55P  41.0P  0.00P  
10/14/2014 04:15 MST2.55P  41.0P  0.00P  
10/14/2014 04:30 MST2.55P  41.0P  0.00P  
10/14/2014 04:45 MST2.54P  41.0P  0.00P  
10/14/2014 05:00 MST2.55P  40.0P  0.00P  
10/14/2014 05:15 MST2.54P  40.0P  0.00P  
10/14/2014 05:30 MST2.54P  40.0P  0.00P  
10/14/2014 05:45 MST2.55P  40.0P  0.00P  
10/14/2014 06:00 MST2.54P  40.0P  0.00P  
10/14/2014 06:15 MST2.54P  40.0P  0.00P  
10/14/2014 06:30 MST2.53P  40.0P  0.00P  
10/14/2014 06:45 MST2.53P  40.0P  0.00P  
10/14/2014 07:00 MST2.54P  40.0P  0.00P  
10/14/2014 07:15 MST2.53P  39.0P  0.00P  
10/14/2014 07:30 MST2.53P  39.0P  0.00P  
10/14/2014 07:45 MST2.53P  38.0P  0.00P  
10/14/2014 08:00 MST2.53P  39.0P  0.00P  
10/14/2014 08:15 MST2.53P  39.0P  0.00P  
10/14/2014 08:30 MST2.52P  38.0P  0.00P  
10/14/2014 08:45 MST2.53P  39.0P  0.00P  
10/14/2014 09:00 MST2.53P  38.0P  0.00P  
10/14/2014 09:15 MST2.53P  39.0P  0.00P  
10/14/2014 09:30 MST2.53P  38.0P  0.00P  
10/14/2014 09:45 MST2.53P  38.0P  0.00P  
10/14/2014 10:00 MST2.53P  38.0P  0.00P  
10/14/2014 10:15 MST2.53P  39.0P  0.00P  
10/14/2014 10:30 MST2.52P  39.0P  0.00P  
10/14/2014 10:45 MST2.53P  39.0P  0.00P  
10/14/2014 11:00 MST2.52P  40.0P  0.00P  
10/14/2014 11:15 MST2.52P  39.0P  0.00P  
10/14/2014 11:30 MST2.52P  39.0P  0.00P  
10/14/2014 11:45 MST2.53P  39.0P  0.00P  
10/14/2014 12:00 MST2.52P  38.0P  0.00P  
10/14/2014 12:15 MST2.52P  38.0P  0.00P  
10/14/2014 12:30 MST2.52P  38.0P  0.00P  
10/14/2014 12:45 MST2.53P  38.0P  0.00P  
10/14/2014 13:00 MST2.52P  37.1P  0.00P  
10/14/2014 13:15 MST2.52P  37.1P  0.00P  
10/14/2014 13:30 MST2.51P  37.1P  0.00P  
10/14/2014 13:45 MST2.52P  37.1P  0.00P  
10/14/2014 14:00 MST2.52P  38.0P  0.00P  
10/14/2014 14:15 MST2.52P  37.1P  0.00P  
10/14/2014 14:30 MST2.52P  38.0P  0.00P  
10/14/2014 14:45 MST2.51P  38.0P  0.00P  
10/14/2014 15:00 MST2.51P  37.1P  0.00P  
10/14/2014 15:15 MST2.51P  38.0P  0.00P  
10/14/2014 15:30 MST2.51P  38.0P  0.00P  
10/14/2014 15:45 MST2.51P  38.0P  0.00P  
10/14/2014 16:00 MST2.51P  36.1P  0.00P  
10/14/2014 16:15 MST2.51P  37.1P  0.00P  
10/14/2014 16:30 MST2.50P  36.1P  0.00P  
10/14/2014 16:45 MST2.51P  36.1P  0.00P  
10/14/2014 17:00 MST2.50P  36.1P  0.00P  
10/14/2014 17:15 MST2.50P  36.1P  0.00P  
10/14/2014 17:30 MST2.51P  36.1P  0.00P  
10/14/2014 17:45 MST2.51P  36.1P  0.00P  
10/14/2014 18:00 MST2.50P  36.1P  0.00P  
10/14/2014 18:15 MST2.50P  36.1P  0.00P  
10/14/2014 18:30 MST2.50P  36.1P  0.00P  
10/14/2014 18:45 MST2.50P  35.2P  0.00P  
10/14/2014 19:00 MST2.50P  36.1P  0.00P  
10/14/2014 19:15 MST2.50P  36.1P  0.00P  
10/14/2014 19:30 MST2.50P  36.1P  0.00P  
10/14/2014 19:45 MST2.49P  35.2P  0.00P  
10/14/2014 20:00 MST2.49P  36.1P  0.00P  
10/14/2014 20:15 MST2.50P  36.1P  0.00P  
10/14/2014 20:30 MST2.50P  36.1P  0.00P  
10/14/2014 20:45 MST2.49P  36.1P  0.00P  
10/14/2014 21:00 MST2.50P  36.1P  0.00P  
10/14/2014 21:15 MST2.49P  35.2P  0.00P  
10/14/2014 21:30 MST2.49P  36.1P  0.00P  
10/14/2014 21:45 MST2.49P  36.1P  0.00P  
10/14/2014 22:00 MST2.49P  36.1P  0.00P  
10/14/2014 22:15 MST2.49P  36.1P  0.00P  
10/14/2014 22:30 MST2.48P  36.1P  0.00P  
10/14/2014 22:45 MST2.48P  36.1P  0.00P  
10/14/2014 23:00 MST2.48P  36.1P  0.00P  
10/14/2014 23:15 MST2.48P  36.1P  0.00P  
10/14/2014 23:29 MST2.49P  35.2P  0.00P  
10/14/2014 23:30 MST2.49P  35.2P  0.00P  
10/14/2014 23:44 MST2.48P  36.1P  0.00P  
10/14/2014 23:45 MST2.48P  36.1P  0.00P  
10/15/2014 00:00 MST2.49P  36.1P  0.00P  
10/15/2014 00:15 MST2.48P  36.1P  0.00P  
10/15/2014 00:30 MST2.48P  36.1P  0.00P  
10/15/2014 00:45 MST2.48P  35.2P  0.00P  
10/15/2014 01:00 MST2.48P  35.2P  0.00P  
10/15/2014 01:15 MST2.48P  35.2P  0.00P  
10/15/2014 01:30 MST2.48P  35.2P  0.00P  
10/15/2014 01:45 MST2.47P  35.2P  0.00P  
10/15/2014 02:00 MST2.47P  34.3P  0.00P  
10/15/2014 02:15 MST2.47P  34.3P  0.00P  
10/15/2014 02:30 MST2.47P  34.3P  0.00P  
10/15/2014 02:45 MST2.47P  34.3P  0.00P  
10/15/2014 03:00 MST2.46P  34.3P  0.00P  
10/15/2014 03:15 MST2.47P  34.3P  0.00P  
10/15/2014 03:30 MST2.48P  34.3P  0.00P  
10/15/2014 03:45 MST2.48P  34.3P  0.00P  
10/15/2014 04:00 MST2.47P  34.3P  0.00P  
10/15/2014 04:15 MST2.47P  35.2P  0.00P  
10/15/2014 04:30 MST2.47P  35.2P  0.00P  
10/15/2014 04:45 MST2.48P  34.3P  0.00P  
10/15/2014 05:00 MST2.47P  34.3P  0.00P  
10/15/2014 05:15 MST2.46P  35.2P  0.00P  
10/15/2014 05:30 MST2.47P  34.3P  0.00P  
10/15/2014 05:45 MST2.47P  34.3P  0.00P  
10/15/2014 06:00 MST2.46P  34.3P  0.00P  
10/15/2014 06:15 MST2.47P  34.3P  0.00P  
10/15/2014 06:30 MST2.46P  33.4P  0.00P  
10/15/2014 06:45 MST2.46P  34.3P  0.00P  
10/15/2014 07:00 MST2.46P  34.3P  0.00P  
10/15/2014 07:15 MST2.45P  33.4P  0.00P  
10/15/2014 07:30 MST2.46P  34.3P  0.00P  
10/15/2014 07:45 MST2.46P  35.2P  0.00P  
10/15/2014 08:00 MST2.46P  34.3P  0.00P  
10/15/2014 08:15 MST2.46P  34.3P  0.00P  
10/15/2014 08:30 MST2.47P  34.3P  0.00P  
10/15/2014 08:45 MST2.46P  33.4P  0.00P  
10/15/2014 09:00 MST2.46P  34.3P  0.00P  
10/15/2014 09:15 MST2.46P  33.4P  0.00P  
10/15/2014 09:30 MST2.46P  34.3P  0.00P  
10/15/2014 09:45 MST2.46P  34.3P  0.00P  
10/15/2014 10:00 MST2.46P  34.3P  0.00P  
10/15/2014 10:15 MST2.46P  33.4P  0.00P  
10/15/2014 10:30 MST2.46P  33.4P  0.00P  
10/15/2014 10:45 MST2.47P  32.5P  0.00P  
10/15/2014 11:00 MST2.46P  33.4P  0.00P  
10/15/2014 11:15 MST2.47P  34.3P  0.00P  
10/15/2014 11:30 MST2.46P  34.3P  0.00P  
10/15/2014 11:45 MST2.47P  34.3P  0.00P  
10/15/2014 12:00 MST2.46P  34.3P  0.00P  
10/15/2014 12:15 MST2.46P  34.3P  0.00P  
10/15/2014 12:30 MST2.46P  34.3P  0.00P  
10/15/2014 12:45 MST2.47P  33.4P  0.00P  
10/15/2014 13:00 MST2.46P  33.4P  0.00P  
10/15/2014 13:15 MST2.46P  33.4P  0.00P  
10/15/2014 13:30 MST2.46P  32.5P  0.00P  
10/15/2014 13:45 MST2.46P  32.5P  0.00P  
10/15/2014 14:00 MST2.46P     0.00P  
10/15/2014 14:15 MST2.47P  33.4P  0.00P  
10/15/2014 14:30 MST2.46P  33.4P  0.00P  
10/15/2014 14:45 MST2.47P  33.4P  0.00P  
10/15/2014 15:00 MST2.46P  32.5P  0.00P  
10/15/2014 15:15 MST2.47P  33.4P  0.00P  
10/15/2014 15:30 MST2.47P  32.5P  0.00P  
10/15/2014 15:45 MST2.46P  32.5P  0.00P  
10/15/2014 16:00 MST2.46P  32.5P  0.00P  
10/15/2014 16:15 MST2.46P  31.6P  0.00P  
10/15/2014 16:30 MST2.46P  31.6P  0.00P  
10/15/2014 16:45 MST2.46P  31.6P  0.00P  
10/15/2014 17:00 MST2.47P  32.5P  0.00P  
10/15/2014 17:15 MST2.47P  31.6P  0.00P  
10/15/2014 17:30 MST2.46P  30.8P  0.00P  
10/15/2014 17:45 MST2.47P  30.8P  0.00P  
10/15/2014 18:00 MST2.47P  29.9P  0.00P  
10/15/2014 18:15 MST2.46P  30.8P  0.00P  
10/15/2014 18:30 MST2.46P  31.6P  0.00P  
10/15/2014 18:45 MST2.46P  32.5P  0.00P  
10/15/2014 19:00 MST2.46P  32.5P  0.00P  
10/15/2014 19:15 MST2.46P  31.6P  0.00P  
10/15/2014 19:30 MST2.47P  31.6P  0.00P  
10/15/2014 19:45 MST2.48P  31.6P  0.00P  
10/15/2014 20:00 MST2.49P  30.8P  0.00P  
10/15/2014 20:15 MST2.49P  31.6P  0.00P  
10/15/2014 20:30 MST2.51P  30.8P  0.00P  
10/15/2014 20:45 MST2.52P  31.6P  0.00P  
10/15/2014 21:00 MST2.52P  32.5P  0.00P  
10/15/2014 21:15 MST2.52P  30.8P  0.00P  
10/15/2014 21:30 MST2.51P  30.8P  0.00P  
10/15/2014 21:45 MST2.52P  31.6P  0.00P  
10/15/2014 22:00 MST2.52P  31.6P  0.00P  
10/15/2014 22:15 MST2.51P  31.6P  0.00P  
10/15/2014 22:30 MST2.52P  31.6P  0.00P  
10/15/2014 22:45 MST2.52P  31.6P  0.00P  
10/15/2014 23:00 MST2.52P  31.6P  0.00P  
10/15/2014 23:15 MST2.52P  31.6P  0.00P  
10/15/2014 23:29 MST2.49P  31.6P  0.00P  
10/15/2014 23:30 MST2.49P  31.6P  0.00P  
10/15/2014 23:44 MST2.51P  31.6P  0.00P  
10/15/2014 23:45 MST2.51P  31.6P  0.00P  
10/16/2014 00:00 MST2.56P  32.5P  0.00P  
10/16/2014 00:15 MST2.50P  32.5P  0.00P  
10/16/2014 00:30 MST2.57P  31.6P  0.00P  
10/16/2014 00:45 MST2.55P  32.5P  0.00P  
10/16/2014 01:00 MST2.59P  31.6P  0.00P  
10/16/2014 01:15 MST2.53P  31.6P  0.00P  
10/16/2014 01:30 MST2.53P  31.6P  0.00P  
10/16/2014 01:45 MST2.52P  31.6P  0.00P  
10/16/2014 02:00 MST2.56P  32.5P  0.00P  
10/16/2014 02:15 MST2.54P  31.6P  0.00P  
10/16/2014 02:30 MST2.51P  31.6P  0.00P  
10/16/2014 02:45 MST2.53P  32.5P  0.00P  
10/16/2014 03:00 MST2.51P  31.6P  0.00P  
10/16/2014 03:15 MST2.51P  30.8P  0.00P  
10/16/2014 03:30 MST2.53P  31.6P  0.00P  
10/16/2014 03:45 MST2.56P  30.8P  0.00P  
10/16/2014 04:00 MST2.52P  31.6P  0.00P  
10/16/2014 04:15 MST2.52P  30.8P  0.00P  
10/16/2014 04:30 MST2.51P  31.6P  0.00P  
10/16/2014 04:45 MST2.51P  31.6P  0.00P  
10/16/2014 05:00 MST2.52P  30.8P  0.00P  
10/16/2014 05:15 MST2.49P  30.8P  0.00P  
10/16/2014 05:30 MST2.51P  30.8P  0.00P  
10/16/2014 05:45 MST2.55P  30.8P  0.00P  
10/16/2014 06:00 MST2.53P  30.8P  0.00P  
10/16/2014 06:15 MST2.52P  30.8P  0.00P  
10/16/2014 06:30 MST2.50P  30.8P  0.00P  
10/16/2014 06:45 MST2.49P  30.8P  0.00P  
10/16/2014 07:00 MST2.51P  30.8P  0.00P  
10/16/2014 07:15 MST2.51P  30.8P  0.00P  
10/16/2014 07:30 MST2.51P  31.6P  0.00P  
10/16/2014 07:45 MST2.52P  31.6P  0.00P  
10/16/2014 08:00 MST2.51P  31.6P  0.00P  
10/16/2014 08:15 MST2.51P  31.6P  0.00P  
10/16/2014 08:30 MST2.50P  30.8P  0.00P  
10/16/2014 08:45 MST2.52P  30.8P  0.00P  
10/16/2014 09:00 MST2.53P  29.9P  0.00P  
10/16/2014 09:15 MST2.51P  30.8P  0.00P  
10/16/2014 09:30 MST2.50P  30.8P  0.00P  
10/16/2014 09:45 MST2.54P  30.8P  0.00P  
10/16/2014 10:00 MST2.54P  30.8P  0.00P  
10/16/2014 10:15 MST2.57P  30.8P  0.00P  
10/16/2014 10:30 MST2.50P  29.9P  0.00P  
10/16/2014 10:45 MST2.50P  30.8P  0.00P  
10/16/2014 11:00 MST2.56P  30.8P  0.00P  
10/16/2014 11:15 MST2.50P  30.8P  0.00P  
10/16/2014 11:30 MST2.52P  30.8P  0.00P  
10/16/2014 11:45 MST2.52P  30.8P  0.00P  
10/16/2014 12:00 MST2.50P  30.8P  0.00P  
10/16/2014 12:15 MST2.51P  29.9P  0.00P  
10/16/2014 12:30 MST2.52P  29.9P  0.00P  
10/16/2014 12:45 MST2.50P  30.8P  0.00P  
10/16/2014 13:00 MST2.51P  29.9P  0.00P  
10/16/2014 13:15 MST2.51P  30.8P  0.00P  
10/16/2014 13:30 MST2.54P  29.9P  0.00P  
10/16/2014 13:45 MST2.52P  30.8P  0.00P  
10/16/2014 14:00 MST2.53P  29.1P  0.00P  
10/16/2014 14:15 MST2.50P  29.9P  0.00P  
10/16/2014 14:30 MST2.53P  29.1P  0.00P  
10/16/2014 14:45 MST2.52P  29.9P  0.00P  
10/16/2014 15:00 MST2.50P  29.1P  0.00P  
10/16/2014 15:15 MST2.51P  29.1P  0.00P  
10/16/2014 15:30 MST2.50P  29.1P  0.00P  
10/16/2014 15:45 MST2.50P  29.9P  0.00P  
10/16/2014 16:00 MST2.51P  29.9P  0.00P  
10/16/2014 16:15 MST2.49P  29.9P  0.00P  
10/16/2014 16:30 MST2.50P  29.9P  0.00P  
10/16/2014 16:45 MST2.50P  29.9P  0.00P  
10/16/2014 17:00 MST2.50P  29.9P  0.00P  
10/16/2014 17:15 MST2.51P  30.8P  0.00P  
10/16/2014 17:30 MST2.51P  29.1P  0.00P  
10/16/2014 17:45 MST2.50P  29.1P  0.00P  
10/16/2014 18:00 MST2.48P  29.1P  0.00P  
10/16/2014 18:15 MST2.49P  28.3P  0.00P  
10/16/2014 18:30 MST2.49P  29.1P  0.00P  
10/16/2014 18:45 MST2.48P  29.1P  0.00P  
10/16/2014 19:00 MST2.48P  29.1P  0.00P  
10/16/2014 19:15 MST2.48P  29.1P  0.00P  
10/16/2014 19:30 MST2.46P  29.9P  0.00P  
10/16/2014 19:45 MST2.49P  29.1P  0.00P  
10/16/2014 20:00 MST2.59P  29.1P  0.00P  
10/16/2014 20:15 MST2.49P  29.1P  0.00P  
10/16/2014 20:30 MST2.49P  29.1P  0.00P  
10/16/2014 20:45 MST2.50P  29.9P  0.00P  
10/16/2014 21:00 MST2.49P  29.9P  0.00P  
10/16/2014 21:15 MST2.49P  29.9P  0.00P  
10/16/2014 21:30 MST2.47P  29.1P  0.00P  
10/16/2014 21:45 MST2.47P  29.1P  0.00P  
10/16/2014 22:00 MST2.46P  29.1P  0.00P  
10/16/2014 22:15 MST2.48P  28.3P  0.00P  
10/16/2014 22:30 MST2.46P  29.1P  0.00P  
10/16/2014 22:45 MST2.46P  29.1P  0.00P  
10/16/2014 23:00 MST2.48P  29.9P  0.00P  
10/16/2014 23:15 MST2.49P  29.1P  0.00P  
10/16/2014 23:29 MST2.49P  29.1P  0.00P  
10/16/2014 23:30 MST2.49P  29.1P  0.00P  
10/16/2014 23:44 MST2.48P  29.1P  0.00P  
10/16/2014 23:45 MST2.48P  29.1P  0.00P  
10/17/2014 00:00 MST2.48P  29.9P  0.00P  
10/17/2014 00:15 MST2.46P  30.8P  0.00P  
10/17/2014 00:30 MST2.48P  29.9P  0.00P  
10/17/2014 00:45 MST2.48P  29.9P  0.00P  
10/17/2014 01:00 MST2.48P  29.1P  0.00P  
10/17/2014 01:15 MST2.49P  29.1P  0.00P  
10/17/2014 01:30 MST2.47P  28.3P  0.00P  
10/17/2014 01:45 MST2.47P  29.1P  0.00P  
10/17/2014 02:00 MST2.48P  29.9P  0.00P  
10/17/2014 02:15 MST2.49P  29.1P  0.00P  
10/17/2014 02:30 MST2.47P  29.1P  0.00P  
10/17/2014 02:45 MST2.48P  29.1P  0.00P  
10/17/2014 03:00 MST2.46P  29.1P  0.00P  
10/17/2014 03:15 MST2.47P  29.1P  0.00P  
10/17/2014 03:30 MST2.47P  29.1P  0.00P  
10/17/2014 03:45 MST2.46P  29.1P  0.00P  
10/17/2014 04:00 MST2.47P  29.1P  0.00P  
10/17/2014 04:15 MST2.48P  29.9P  0.00P  
10/17/2014 04:30 MST2.46P  29.9P  0.00P  
10/17/2014 04:45 MST2.47P  29.9P  0.00P  
10/17/2014 05:00 MST2.48P  29.1P  0.00P  
10/17/2014 05:15 MST2.49P  29.9P  0.00P  
10/17/2014 05:30 MST2.49P  29.9P  0.00P  
10/17/2014 05:45 MST2.49P  29.9P  0.00P  
10/17/2014 06:00 MST2.50P  29.1P  0.00P  
10/17/2014 06:15 MST2.47P  29.1P  0.00P  
10/17/2014 06:30 MST2.47P  29.1P  0.00P  
10/17/2014 06:45 MST2.50P  29.1P  0.00P  
10/17/2014 07:00 MST2.48P  29.1P  0.00P  
10/17/2014 07:15 MST2.50P  29.1P  0.00P  
10/17/2014 07:30 MST2.49P  29.9P  0.00P  
10/17/2014 07:45 MST2.46P  29.1P  0.00P  
10/17/2014 08:00 MST2.48P  29.1P  0.00P  
10/17/2014 08:15 MST2.48P  29.1P  0.00P  
10/17/2014 08:30 MST2.48P  28.3P  0.00P  
10/17/2014 08:45 MST2.49P  29.1P  0.00P  
10/17/2014 09:00 MST2.48P  29.1P  0.00P  
10/17/2014 09:15 MST2.48P  29.1P  0.00P  
10/17/2014 09:30 MST2.48P  29.1P  0.00P  
10/17/2014 09:45 MST2.48P  29.1P  0.00P  
10/17/2014 10:00 MST2.49P  29.9P  0.00P  
10/17/2014 10:15 MST2.49P  29.9P  0.00P  
10/17/2014 10:30 MST2.50P  29.1P  0.00P  
10/17/2014 10:45 MST2.48P  29.1P  0.00P  
10/17/2014 11:00 MST2.48P  29.1P  0.00P  
10/17/2014 11:15 MST2.49P  28.3P  0.00P  
10/17/2014 11:30 MST2.49P  28.3P  0.00P  
10/17/2014 11:45 MST2.49P  28.3P  0.00P  
10/17/2014 12:00 MST2.48P  28.3P  0.00P  
10/17/2014 12:15 MST2.46P  26.8P  0.00P  
10/17/2014 12:30 MST2.48P  28.3P  0.00P  
10/17/2014 12:45 MST2.49P  27.5P  0.00P  
10/17/2014 13:00 MST2.48P  28.3P  0.00P  
10/17/2014 13:15 MST2.48P  29.1P  0.00P  
10/17/2014 13:30 MST2.48P  29.1P  0.00P  
10/17/2014 13:45 MST2.47P  29.1P  0.00P  
10/17/2014 14:00 MST2.49P  29.1P  0.00P  
10/17/2014 14:15 MST2.48P  29.9P  0.00P  
10/17/2014 14:30 MST2.49P  29.9P  0.00P  
10/17/2014 14:45 MST2.49P  29.1P  0.00P  
10/17/2014 15:00 MST2.53P  28.3P  0.00P  
10/17/2014 15:15 MST2.48P  28.3P  0.00P  
10/17/2014 15:30 MST2.48P  28.3P  0.00P  
10/17/2014 15:45 MST2.48P  28.3P  0.00P  
10/17/2014 16:00 MST2.48P  29.1P  0.00P  
10/17/2014 16:15 MST2.50P  29.1P  0.00P  
10/17/2014 16:30 MST2.49P  29.1P  0.00P  
10/17/2014 16:45 MST2.49P  29.1P  0.00P  
10/17/2014 17:00 MST2.52P  28.3P  0.00P  
10/17/2014 17:15 MST2.47P  27.5P  0.00P  
10/17/2014 17:30 MST2.47P  27.5P  0.00P  
10/17/2014 17:45 MST2.47P  28.3P  0.00P  
10/17/2014 18:00 MST2.49P  28.3P  0.00P  
10/17/2014 18:15 MST2.48P  28.3P  0.00P  
10/17/2014 18:30 MST2.49P  29.1P  0.00P  
10/17/2014 18:45 MST2.49P  28.3P  0.00P  
10/17/2014 19:00 MST2.49P  28.3P  0.00P  
10/17/2014 19:15 MST2.49P  28.3P  0.00P  
10/17/2014 19:30 MST2.47P  28.3P  0.00P  
10/17/2014 19:45 MST2.49P  28.3P  0.00P  
10/17/2014 20:00 MST2.49P  26.8P  0.00P  
10/17/2014 20:15 MST2.50P  28.3P  0.00P  
10/17/2014 20:30 MST2.49P  28.3P  0.00P  
10/17/2014 20:45 MST2.49P  29.1P  0.00P  
10/17/2014 21:00 MST2.49P  28.3P  0.00P  
10/17/2014 21:15 MST2.49P  28.3P  0.00P  
10/17/2014 21:30 MST2.50P  27.5P  0.00P  
10/17/2014 21:45 MST2.47P  27.5P  0.00P  
10/17/2014 22:00 MST2.48P  28.3P  0.00P  
10/17/2014 22:15 MST2.49P  28.3P  0.00P  
10/17/2014 22:30 MST2.46P  28.3P  0.00P  
10/17/2014 22:45 MST2.47P  28.3P  0.00P  
10/17/2014 23:00 MST2.46P  28.3P  0.00P  
10/17/2014 23:15 MST2.45P  28.3P  0.00P  
10/17/2014 23:29 MST2.47P  28.3P  0.00P  
10/17/2014 23:30 MST2.47P  28.3P  0.00P  
10/17/2014 23:44 MST2.47P  27.5P  0.00P  
10/17/2014 23:45 MST2.47P  27.5P  0.00P  
10/18/2014 00:00 MST2.47P  27.5P  0.00P  
10/18/2014 00:15 MST2.47P  27.5P  0.00P  
10/18/2014 00:30 MST2.46P  28.3P  0.00P  
10/18/2014 00:45 MST2.50P  27.5P  0.00P  
10/18/2014 01:00 MST2.47P  26.8P  0.00P  
10/18/2014 01:15 MST2.47P  27.5P  0.00P  
10/18/2014 01:30 MST2.47P  26.8P  0.00P  
10/18/2014 01:45 MST2.48P  27.5P  0.00P  
10/18/2014 02:00 MST2.47P  28.3P  0.00P  
10/18/2014 02:15 MST2.47P  28.3P  0.00P  
10/18/2014 02:30 MST2.46P  28.3P  0.00P  
10/18/2014 02:45 MST2.46P  27.5P  0.00P  
10/18/2014 03:00 MST2.46P  27.5P  0.00P  
10/18/2014 03:15 MST2.47P  27.5P  0.00P  
10/18/2014 03:30 MST2.49P  27.5P  0.00P  
10/18/2014 03:45 MST2.49P  28.3P  0.00P  
10/18/2014 04:00 MST2.50P  28.3P  0.00P  
10/18/2014 04:15 MST2.51P  27.5P  0.00P  
10/18/2014 04:30 MST2.50P  27.5P  0.00P  
10/18/2014 04:45 MST2.50P  27.5P  0.00P  
10/18/2014 05:00 MST2.48P  28.3P  0.00P  
10/18/2014 05:15 MST2.47P  28.3P  0.00P  
10/18/2014 05:30 MST2.47P  28.3P  0.00P  
10/18/2014 05:45 MST2.47P  28.3P  0.00P  
10/18/2014 06:00 MST2.47P  28.3P  0.00P  
10/18/2014 06:15 MST2.47P  28.3P  0.00P  
10/18/2014 06:30 MST2.47P  28.3P  0.00P  
10/18/2014 06:45 MST2.47P  28.3P  0.00P  
10/18/2014 07:00 MST2.51P  28.3P  0.00P  
10/18/2014 07:15 MST2.47P  27.5P  0.00P  
10/18/2014 07:30 MST2.46P  27.5P  0.00P  
10/18/2014 07:45 MST2.47P  27.5P  0.00P  
10/18/2014 08:00 MST2.47P  26.8P  0.00P  
10/18/2014 08:15 MST2.47P  27.5P  0.00P  
10/18/2014 08:30 MST2.48P  27.5P  0.00P  
10/18/2014 08:45 MST2.47P  27.5P  0.00P  
10/18/2014 09:00 MST2.47P  26.8P  0.00P  
10/18/2014 09:15 MST2.48P  26.8P  0.00P  
10/18/2014 09:30 MST2.47P  27.5P  0.00P  
10/18/2014 09:45 MST2.47P  28.3P  0.00P  
10/18/2014 10:00 MST2.47P  27.5P  0.00P  
10/18/2014 10:15 MST2.47P  26.8P  0.00P  
10/18/2014 10:30 MST2.47P  27.5P  0.00P  
10/18/2014 10:45 MST2.47P  26.8P  0.00P  
10/18/2014 11:00 MST2.46P  28.3P  0.00P  
10/18/2014 11:15 MST2.47P  28.3P  0.00P  
10/18/2014 11:30 MST2.47P  27.5P  0.00P  
10/18/2014 11:45 MST2.48P  26.8P  0.00P  
10/18/2014 12:00 MST2.49P  27.5P  0.00P  
10/18/2014 12:15 MST2.46P  28.3P  0.00P  
10/18/2014 12:30 MST2.48P  27.5P  0.00P  
10/18/2014 12:45 MST2.47P  27.5P  0.00P  
10/18/2014 13:00 MST2.47P  27.5P  0.00P  
10/18/2014 13:15 MST2.47P  27.5P  0.00P  
10/18/2014 13:30 MST2.47P  28.3P  0.00P  
10/18/2014 13:45 MST2.47P  28.3P  0.00P  
10/18/2014 14:00 MST2.47P  27.5P  0.00P  
10/18/2014 14:15 MST2.47P  27.5P  0.00P  
10/18/2014 14:30 MST2.46P  27.5P  0.00P  
10/18/2014 14:45 MST2.46P  26.0P  0.00P  
10/18/2014 15:00 MST2.47P  26.8P  0.00P  
10/18/2014 15:15 MST2.46P  27.5P  0.00P  
10/18/2014 15:30 MST2.50P  27.5P  0.00P  
10/18/2014 15:45 MST2.52P  27.5P  0.00P  
10/18/2014 16:00 MST2.49P  27.5P  0.00P  
10/18/2014 16:15 MST2.52P  26.8P  0.00P  
10/18/2014 16:30 MST2.49P  26.0P  0.00P  
10/18/2014 16:45 MST2.50P  26.0P  0.00P  
10/18/2014 17:00 MST2.50P  26.8P  0.00P  
10/18/2014 17:15 MST2.49P  26.0P  0.00P  
10/18/2014 17:30 MST2.48P  25.2P  0.00P  
10/18/2014 17:45 MST2.50P  26.0P  0.00P  
10/18/2014 18:00 MST2.46P  26.0P  0.00P  
10/18/2014 18:15 MST2.46P  26.8P  0.00P  
10/18/2014 18:30 MST2.46P  26.8P  0.00P  
10/18/2014 18:45 MST2.45P  27.5P  0.00P  
10/18/2014 19:00 MST2.47P  26.8P  0.00P  
10/18/2014 19:15 MST2.45P  26.0P  0.00P  
10/18/2014 19:30 MST2.45P  26.0P  0.00P  
10/18/2014 19:45 MST2.45P  27.5P  0.00P  
10/18/2014 20:00 MST2.45P  27.5P  0.00P  
10/18/2014 20:15 MST2.46P  27.5P  0.00P  
10/18/2014 20:30 MST2.45P  26.8P  0.00P  
10/18/2014 20:45 MST2.46P  26.8P  0.00P  
10/18/2014 21:00 MST2.47P  27.5P  0.00P  
10/18/2014 21:15 MST2.46P  28.3P  0.00P  
10/18/2014 21:30 MST2.47P  27.5P  0.00P  
10/18/2014 21:45 MST2.44P  26.8P  0.00P  
10/18/2014 22:00 MST2.46P  26.8P  0.00P  
10/18/2014 22:15 MST2.46P  26.8P  0.00P  
10/18/2014 22:30 MST2.45P  26.8P  0.00P  
10/18/2014 22:45 MST2.45P  26.8P  0.00P  
10/18/2014 23:00 MST2.44P  26.8P  0.00P  
10/18/2014 23:15 MST2.45P  26.8P  0.00P  
10/18/2014 23:29 MST2.45P  26.8P  0.00P  
10/18/2014 23:30 MST2.45P  26.8P  0.00P  
10/18/2014 23:44 MST2.43P  26.8P  0.00P  
10/18/2014 23:45 MST2.43P  26.8P  0.00P  
10/19/2014 00:00 MST2.43P  26.0P  0.00P  
10/19/2014 00:15 MST2.45P  26.0P  0.00P  
10/19/2014 00:30 MST2.44P  26.8P  0.00P  
10/19/2014 00:45 MST2.44P  26.8P  0.00P  
10/19/2014 01:00 MST2.44P  27.5P  0.00P  
10/19/2014 01:15 MST2.45P  26.8P  0.00P  
10/19/2014 01:30 MST2.44P  26.0P  0.00P  
10/19/2014 01:45 MST2.45P  26.8P  0.00P  
10/19/2014 02:00 MST2.45P  26.0P  0.00P  
10/19/2014 02:15 MST2.44P  26.0P  0.00P  
10/19/2014 02:30 MST2.45P  26.8P  0.00P  
10/19/2014 02:45 MST2.43P  26.0P  0.00P  
10/19/2014 03:00 MST2.45P  26.8P  0.00P  
10/19/2014 03:15 MST2.44P  27.5P  0.00P  
10/19/2014 03:30 MST2.44P  27.5P  0.00P  
10/19/2014 03:45 MST2.44P  27.5P  0.00P  
10/19/2014 04:00 MST2.44P  27.5P  0.00P  
10/19/2014 04:15 MST2.44P  27.5P  0.00P  
10/19/2014 04:30 MST2.47P  26.8P  0.00P  
10/19/2014 04:45 MST2.48P  27.5P  0.00P  
10/19/2014 05:00 MST2.43P  26.8P  0.00P  
10/19/2014 05:15 MST2.47P  26.8P  0.00P  
10/19/2014 05:30 MST2.45P  26.8P  0.00P  
10/19/2014 05:45 MST2.46P  26.8P  0.00P  
10/19/2014 06:00 MST2.46P  26.0P  0.00P  
10/19/2014 06:15 MST2.45P  26.0P  0.00P  
10/19/2014 06:30 MST2.47P  27.5P  0.00P  
10/19/2014 06:45 MST2.47P  27.5P  0.00P  
10/19/2014 07:00 MST2.47P  27.5P  0.00P  
10/19/2014 07:15 MST2.47P  26.8P  0.00P  
10/19/2014 07:30 MST2.47P  26.0P  0.00P  
10/19/2014 07:45 MST2.47P  26.0P  0.00P  
10/19/2014 08:00 MST2.46P  26.8P  0.00P  
10/19/2014 08:15 MST2.49P  27.5P  0.00P  
10/19/2014 08:30 MST2.48P  27.5P  0.00P  
10/19/2014 08:45 MST2.45P  27.5P  0.00P  
10/19/2014 09:00 MST2.45P  27.5P  0.00P  
10/19/2014 09:15 MST2.47P  26.8P  0.00P  
10/19/2014 09:30 MST2.48P  26.8P  0.00P  
10/19/2014 09:45 MST2.49P  27.5P  0.00P  
10/19/2014 10:00 MST2.48P  27.5P  0.00P  
10/19/2014 10:15 MST2.49P  26.8P  0.00P  
10/19/2014 10:30 MST2.49P  26.0P  0.00P  
10/19/2014 10:45 MST2.51P  26.0P  0.00P  
10/19/2014 11:00 MST2.51P  26.8P  0.00P  
10/19/2014 11:15 MST2.51P  27.5P  0.00P  
10/19/2014 11:30 MST2.51P  27.5P  0.00P  
10/19/2014 11:45 MST2.49P  26.8P  0.00P  
10/19/2014 12:00 MST2.50P  26.8P  0.00P  
10/19/2014 12:15 MST2.51P  27.5P  0.00P  
10/19/2014 12:30 MST2.49P  26.8P  0.00P  
10/19/2014 12:45 MST2.48P  27.5P  0.00P  
10/19/2014 13:00 MST2.48P  27.5P  0.00P  
10/19/2014 13:15 MST2.52P  26.8P  0.02P  
10/19/2014 13:30 MST2.49P  27.5P  0.00P  
10/19/2014 13:45 MST2.54P  27.5P  0.05P  
10/19/2014 14:00 MST2.52P  28.3P  0.00P  
10/19/2014 14:15 MST2.49P  27.5P  0.00P  
10/19/2014 14:30 MST2.52P  26.0P  0.00P  
10/19/2014 14:45 MST2.50P  26.8P  0.00P  
10/19/2014 15:00 MST2.50P  26.8P  0.00P  
10/19/2014 15:15 MST2.50P  27.5P  0.00P  
10/19/2014 15:30 MST2.50P  28.3P  0.00P  
10/19/2014 15:45 MST2.56P  28.3P  0.00P  
10/19/2014 16:00 MST2.52P  28.3P  0.00P  
10/19/2014 16:15 MST2.52P  28.3P  0.00P  
10/19/2014 16:30 MST2.50P  28.3P  0.00P  
10/19/2014 16:45 MST2.54P  29.1P  0.00P  
10/19/2014 17:00 MST2.57P  32.5P  0.00P  
10/19/2014 17:15 MST2.64P  38.0P  0.00P  
10/19/2014 17:30 MST2.70P  46.3P  0.00P  
10/19/2014 17:45 MST2.74P  48.5P  0.00P  
10/19/2014 18:00 MST2.74P  50.8P  0.00P  
10/19/2014 18:15 MST2.71P  47.4P  0.00P  
10/19/2014 18:30 MST2.71P  45.2P  0.00P  
10/19/2014 18:45 MST2.66P  43.1P  0.00P  
10/19/2014 19:00 MST2.64P  40.0P  0.00P  
10/19/2014 19:15 MST2.61P  39.0P  0.00P  
10/19/2014 19:30 MST2.60P  37.1P  0.00P  
10/19/2014 19:45 MST2.57P  35.2P  0.00P  
10/19/2014 20:00 MST2.56P  33.4P  0.00P  
10/19/2014 20:15 MST2.54P  31.6P  0.00P  
10/19/2014 20:30 MST2.54P  30.8P  0.00P  
10/19/2014 20:45 MST2.54P  30.8P  0.00P  
10/19/2014 21:00 MST2.55P  31.6P  0.00P  
10/19/2014 21:15 MST2.56P  32.5P  0.00P  
10/19/2014 21:30 MST2.57P  34.3P  0.00P  
10/19/2014 21:45 MST2.56P  35.2P  0.00P  
10/19/2014 22:00 MST2.58P  34.3P  0.00P  
10/19/2014 22:15 MST2.57P  34.3P  0.00P  
10/19/2014 22:30 MST2.56P  35.2P  0.00P  
10/19/2014 22:45 MST2.58P  34.3P  0.00P  
10/19/2014 23:00 MST2.52P  32.5P  0.00P  
10/19/2014 23:15 MST2.52P  31.6P  0.00P  
10/19/2014 23:29 MST2.52P  32.5P  0.00P  
10/19/2014 23:30 MST2.52P  32.5P  0.00P  
10/19/2014 23:44 MST2.50P  31.6P  0.00P  
10/19/2014 23:45 MST2.50P  31.6P  0.00P  
10/20/2014 00:00 MST2.51P  30.8P  0.00P  
10/20/2014 00:15 MST2.50P  30.8P  0.00P  
10/20/2014 00:30 MST2.48P  29.1P  0.00P  
10/20/2014 00:45 MST2.51P  28.3P  0.00P  
10/20/2014 01:00 MST2.50P  28.3P  0.00P  
10/20/2014 01:15 MST2.49P  28.3P  0.00P  
10/20/2014 01:30 MST2.50P  27.5P  0.00P  
10/20/2014 01:45 MST2.47P  28.3P  0.00P  
10/20/2014 02:00 MST2.49P  28.3P  0.00P  
10/20/2014 02:15 MST2.45P  29.1P  0.00P  
10/20/2014 02:30 MST2.47P  27.5P  0.00P  
10/20/2014 02:45 MST2.48P  28.3P  0.00P  
10/20/2014 03:00 MST2.49P  27.5P  0.00P  
10/20/2014 03:15 MST2.48P  26.8P  0.00P  
10/20/2014 03:30 MST2.47P  26.8P  0.00P  
10/20/2014 03:45 MST2.48P  28.3P  0.00P  
10/20/2014 04:00 MST2.49P  27.5P  0.00P  
10/20/2014 04:15 MST2.50P  27.5P  0.00P  
10/20/2014 04:30 MST2.50P  27.5P  0.00P  
10/20/2014 04:45 MST2.48P  28.3P  0.00P  
10/20/2014 05:00 MST2.49P  28.3P  0.00P  
10/20/2014 05:15 MST2.50P  26.8P  0.00P  
10/20/2014 05:30 MST2.48P  28.3P  0.00P  
10/20/2014 05:45 MST2.49P  29.1P  0.00P  
10/20/2014 06:00 MST2.49P  29.1P  0.00P  
10/20/2014 06:15 MST2.49P  29.1P  0.00P  
10/20/2014 06:30 MST2.48P  28.3P  0.00P  
10/20/2014 06:45 MST2.51P  29.9P  0.00P  
10/20/2014 07:00 MST2.50P  29.9P  0.00P  
10/20/2014 07:15 MST2.51P  29.9P  0.00P  
10/20/2014 07:30 MST2.49P  29.9P  0.00P  
10/20/2014 07:45 MST2.49P  29.1P  0.00P  
10/20/2014 08:00 MST2.48P  28.3P  0.00P  
10/20/2014 08:15 MST2.49P  29.1P  0.00P  
10/20/2014 08:30 MST2.51P  29.9P  0.00P  
10/20/2014 08:45 MST2.49P  29.9P  0.00P  
10/20/2014 09:00 MST2.50P  28.3P  0.00P  
10/20/2014 09:15 MST2.50P  28.3P  0.00P  
10/20/2014 09:30 MST2.49P  28.3P  0.00P  
10/20/2014 09:45 MST2.49P  28.3P  0.00P  
10/20/2014 10:00 MST2.48P  27.5P  0.00P  
10/20/2014 10:15 MST2.51P  27.5P  0.00P  
10/20/2014 10:30 MST2.47P  27.5P  0.00P  
10/20/2014 10:45 MST2.49P  26.0P  0.00P  
10/20/2014 11:00 MST2.49P  26.8P  0.00P  
10/20/2014 11:15 MST2.48P  26.8P  0.00P  
10/20/2014 11:30 MST2.47P  26.8P  0.00P  
10/20/2014 11:45 MST2.47P  29.1P  0.00P  
10/20/2014 12:00 MST2.47P  28.3P  0.00P  
10/20/2014 12:15 MST2.47P  27.5P  0.00P  
10/20/2014 12:30 MST2.48P  27.5P  0.00P  
10/20/2014 12:45 MST2.48P  27.5P  0.00P  
10/20/2014 13:00 MST2.48P  27.5P  0.00P  
10/20/2014 13:15 MST2.48P  27.5P  0.00P  
10/20/2014 13:30 MST2.48P  26.8P  0.00P  
10/20/2014 13:45 MST2.48P  26.8P  0.00P  
10/20/2014 14:00 MST2.46P  28.3P  0.00P  
10/20/2014 14:15 MST2.48P  26.8P  0.00P  
10/20/2014 14:30 MST2.47P  26.8P  0.00P  
10/20/2014 14:45 MST2.49P  25.2P  0.00P  
10/20/2014 15:00 MST2.47P  25.2P  0.00P  
10/20/2014 15:15 MST2.48P  26.8P  0.00P  
10/20/2014 15:30 MST2.47P  26.8P  0.00P  
10/20/2014 15:45 MST2.47P  26.8P  0.00P  
10/20/2014 16:00 MST2.48P  27.5P  0.00P  
10/20/2014 16:15 MST2.46P  26.0P  0.00P  
10/20/2014 16:30 MST2.46P  26.0P  0.00P  
10/20/2014 16:45 MST2.46P  26.0P  0.00P  
10/20/2014 17:00 MST2.47P  26.0P  0.00P  
10/20/2014 17:15 MST2.46P  26.0P  0.00P  
10/20/2014 17:30 MST2.46P  26.0P  0.00P  
10/20/2014 17:45 MST2.45P  26.0P  0.00P  
10/20/2014 18:00 MST2.45P  25.2P  0.00P  
10/20/2014 18:15 MST2.46P  26.0P  0.00P  
10/20/2014 18:30 MST2.46P  26.8P  0.00P  
10/20/2014 18:45 MST2.46P  27.5P  0.00P  
10/20/2014 19:00 MST2.47P  26.0P  0.00P  
10/20/2014 19:15 MST2.47P  26.0P  0.00P  
10/20/2014 19:30 MST2.47P  26.8P  0.00P  
10/20/2014 19:45 MST2.47P  26.8P  0.00P  
10/20/2014 20:00 MST2.46P  26.0P  0.00P  
10/20/2014 20:15 MST2.46P  26.8P  0.00P  
10/20/2014 20:30 MST2.46P  26.8P  0.00P  
10/20/2014 20:45 MST2.46P  26.0P  0.00P  
10/20/2014 21:00 MST2.47P  26.0P  0.00P  
10/20/2014 21:15 MST2.45P  26.8P  0.00P  
10/20/2014 21:30 MST2.48P  26.8P  0.00P  
10/20/2014 21:45 MST2.48P  26.8P  0.00P  
10/20/2014 22:00 MST2.48P  26.8P  0.00P  
10/20/2014 22:15 MST2.49P  26.0P  0.00P  
10/20/2014 22:30 MST2.46P  26.0P  0.00P  
10/20/2014 22:45 MST2.46P  26.0P  0.00P  
10/20/2014 23:00 MST2.46P  26.0P  0.00P  
10/20/2014 23:15 MST2.47P  26.8P  0.00P  
10/20/2014 23:29 MST2.45P  26.8P  0.00P  
10/20/2014 23:30 MST2.45P  26.8P  0.00P  
10/20/2014 23:44 MST2.45P  26.0P  0.00P  
10/20/2014 23:45 MST2.45P  26.0P  0.00P  
10/21/2014 00:00 MST2.46P  26.8P  0.00P  
10/21/2014 00:15 MST2.44P  26.8P  0.00P  
10/21/2014 00:30 MST2.45P  26.0P  0.00P  
10/21/2014 00:45 MST2.45P  26.8P  0.00P  
10/21/2014 01:00 MST2.46P  26.0P  0.00P  
10/21/2014 01:15 MST2.46P  26.0P  0.00P  
10/21/2014 01:30 MST2.45P  27.5P  0.00P  
10/21/2014 01:45 MST2.45P  26.0P  0.00P  
10/21/2014 02:00 MST2.46P  26.0P  0.00P  
10/21/2014 02:15 MST2.45P  26.0P  0.00P  
10/21/2014 02:30 MST2.45P  26.0P  0.00P  
10/21/2014 02:45 MST2.45P  26.0P  0.00P  
10/21/2014 03:00 MST2.46P  26.8P  0.00P  
10/21/2014 03:15 MST2.45P  25.2P  0.00P  
10/21/2014 03:30 MST2.45P  26.8P  0.00P  
10/21/2014 03:45 MST2.45P  26.0P  0.00P  
10/21/2014 04:00 MST2.45P  26.0P  0.00P  
10/21/2014 04:15 MST2.45P  26.8P  0.00P  
10/21/2014 04:30 MST2.45P  26.0P  0.00P  
10/21/2014 04:45 MST2.45P  26.0P  0.00P  
10/21/2014 05:00 MST2.45P  26.0P  0.00P  
10/21/2014 05:15 MST2.45P  26.8P  0.00P  
10/21/2014 05:30 MST2.47P  26.0P  0.00P  
10/21/2014 05:45 MST2.46P  26.8P  0.00P  
10/21/2014 06:00 MST2.46P  26.0P  0.00P  
10/21/2014 06:15 MST2.45P  26.0P  0.00P  
10/21/2014 06:30 MST2.47P  26.0P  0.00P  
10/21/2014 06:45 MST2.45P  26.8P  0.00P  
10/21/2014 07:00 MST2.45P  26.8P  0.00P  
10/21/2014 07:15 MST2.45P  26.0P  0.00P  
10/21/2014 07:30 MST2.46P  25.2P  0.00P  
10/21/2014 07:45 MST2.44P  26.0P  0.00P  
10/21/2014 08:00 MST2.44P  26.0P  0.00P  
10/21/2014 08:15 MST2.45P  25.2P  0.00P  
10/21/2014 08:30 MST2.45P  26.0P  0.00P  
10/21/2014 08:45 MST2.44P  25.2P  0.00P  
10/21/2014 09:00 MST2.45P  25.2P  0.00P  
10/21/2014 09:15 MST2.46P  26.0P  0.00P  
10/21/2014 09:30 MST2.45P  26.8P  0.00P  
10/21/2014 09:45 MST2.47P  26.8P  0.00P  
10/21/2014 10:00 MST2.46P  26.8P  0.00P  
10/21/2014 10:15 MST2.45P  26.0P  0.00P  
10/21/2014 10:30 MST2.47P  26.0P  0.00P  
10/21/2014 10:45 MST2.47P  26.8P  0.00P  
10/21/2014 11:00 MST2.48P  27.5P  0.00P  
10/21/2014 11:15 MST2.45P  27.5P  0.00P  
10/21/2014 11:30 MST2.49P  26.8P  0.00P  
10/21/2014 11:45 MST2.45P  27.5P  0.00P  
10/21/2014 12:00 MST2.46P  26.8P  0.00P  
10/21/2014 12:15 MST2.46P  26.0P  0.00P  
10/21/2014 12:30 MST2.48P  26.0P  0.00P  
10/21/2014 12:45 MST2.46P  26.0P  0.00P  
10/21/2014 13:00 MST2.46P  26.0P  0.00P  
10/21/2014 13:15 MST2.48P  26.0P  0.00P  
10/21/2014 13:30 MST2.48P  26.0P  0.00P  
10/21/2014 13:45 MST2.46P  26.8P  0.00P  
10/21/2014 14:00 MST2.46P  26.8P  0.00P  
10/21/2014 14:15 MST2.46P  26.8P  0.00P  
10/21/2014 14:30 MST2.50P  27.5P  0.00P  
10/21/2014 14:45 MST2.46P  26.8P  0.00P  
10/21/2014 15:00 MST2.46P  26.8P  0.00P  
10/21/2014 15:15 MST2.46P  26.8P  0.00P  
10/21/2014 15:30 MST2.46P  25.2P  0.00P  
10/21/2014 15:45 MST2.45P  26.0P  0.00P  
10/21/2014 16:00 MST2.46P  26.0P  0.00P  
10/21/2014 16:15 MST2.47P  26.0P  0.00P  
10/21/2014 16:30 MST2.46P  26.8P  0.00P  
10/21/2014 16:45 MST2.47P  25.2P  0.00P  
10/21/2014 17:00 MST2.46P  25.2P  0.00P  
10/21/2014 17:15 MST2.46P  26.8P  0.00P  
10/21/2014 17:30 MST2.46P  26.8P  0.00P  
10/21/2014 17:45 MST2.45P  25.2P  0.00P  
10/21/2014 18:00 MST2.47P  25.2P  0.00P  
10/21/2014 18:15 MST2.45P  26.0P  0.00P  
10/21/2014 18:30 MST2.47P  26.0P  0.00P  
10/21/2014 18:45 MST2.47P  27.5P  0.00P  
10/21/2014 19:00 MST2.45P  26.8P  0.00P  
10/21/2014 19:15 MST2.46P  26.8P  0.00P  
10/21/2014 19:30 MST2.49P  26.0P  0.00P  
10/21/2014 19:45 MST2.45P  26.0P  0.00P  
10/21/2014 20:00 MST2.45P  26.0P  0.00P  
10/21/2014 20:15 MST2.49P  26.0P  0.00P  
10/21/2014 20:30 MST2.50P  26.8P  0.00P  
10/21/2014 20:45 MST2.49P  26.0P  0.00P  
10/21/2014 21:00 MST2.51P  26.8P  0.00P  
10/21/2014 21:15 MST2.45P  26.0P  0.00P  
10/21/2014 21:30 MST2.46P  26.8P  0.00P  
10/21/2014 21:45 MST2.46P  26.0P  0.00P  
10/21/2014 22:00 MST2.47P  26.8P  0.00P  
10/21/2014 22:15 MST2.50P  26.0P  0.00P  
10/21/2014 22:30 MST2.47P  26.0P  0.00P  
10/21/2014 22:45 MST2.46P  25.2P  0.00P  
10/21/2014 23:00 MST2.45P  26.0P  0.00P  
10/21/2014 23:15 MST2.47P  26.0P  0.00P  
10/21/2014 23:29 MST2.46P  26.0P  0.00P  
10/21/2014 23:30 MST2.46P  26.0P  0.00P  
10/21/2014 23:44 MST2.45P  26.0P  0.00P  
10/21/2014 23:45 MST2.45P  26.0P  0.00P  
10/22/2014 00:00 MST2.47P  26.0P  0.00P  
10/22/2014 00:15 MST2.46P  26.8P  0.00P  
10/22/2014 00:30 MST2.46P  26.0P  0.00P  
10/22/2014 00:45 MST2.46P  26.0P  0.00P  
10/22/2014 01:00 MST2.46P  25.2P  0.00P  
10/22/2014 01:15 MST2.45P  26.0P  0.00P  
10/22/2014 01:30 MST2.44P  26.8P  0.00P  
10/22/2014 01:45 MST2.45P  26.0P  0.00P  
10/22/2014 02:00 MST2.46P  26.0P  0.00P  
10/22/2014 02:15 MST2.44P  26.0P  0.00P  
10/22/2014 02:30 MST2.44P  26.8P  0.00P  
10/22/2014 02:45 MST2.51P  25.2P  0.00P  
10/22/2014 03:00 MST2.49P  26.0P  0.00P  
10/22/2014 03:15 MST2.49P  26.8P  0.00P  
10/22/2014 03:30 MST2.48P  26.0P  0.00P  
10/22/2014 03:45 MST2.49P  26.0P  0.00P  
10/22/2014 04:00 MST2.47P  25.2P  0.00P  
10/22/2014 04:15 MST2.47P  26.0P  0.00P  
10/22/2014 04:30 MST2.46P  26.0P  0.00P  
10/22/2014 04:45 MST2.46P  26.0P  0.00P  
10/22/2014 05:00 MST2.49P  26.0P  0.00P  
10/22/2014 05:15 MST2.48P  25.2P  0.00P  
10/22/2014 05:30 MST2.47P  26.0P  0.00P  
10/22/2014 05:45 MST2.48P  26.8P  0.00P  
10/22/2014 06:00 MST2.47P  26.0P  0.00P  
10/22/2014 06:15 MST2.46P  26.8P  0.00P  
10/22/2014 06:30 MST2.47P  26.8P  0.00P  
10/22/2014 06:45 MST2.46P  26.0P  0.00P  
10/22/2014 07:00 MST2.47P  26.8P  0.00P  
10/22/2014 07:15 MST2.47P  26.0P  0.00P  
10/22/2014 07:30 MST2.46P  26.8P  0.00P  
10/22/2014 07:45 MST2.46P  26.8P  0.00P  
10/22/2014 08:00 MST2.46P  26.0P  0.00P  
10/22/2014 08:15 MST2.46P  26.8P  0.00P  
10/22/2014 08:30 MST2.47P  26.0P  0.00P  
10/22/2014 08:45 MST2.47P  26.0P  0.00P  
10/22/2014 09:00 MST2.49P  26.0P  0.00P  
10/22/2014 09:15 MST2.52P  26.8P  0.00P  
10/22/2014 09:30 MST2.47P  26.0P  0.00P  
10/22/2014 09:45 MST2.48P  26.0P  0.00P  
10/22/2014 10:00 MST2.47P  26.0P  0.00P  
10/22/2014 10:15 MST2.48P  26.0P  0.00P  
10/22/2014 10:30 MST2.47P  26.0P  0.00P  
10/22/2014 10:45 MST2.48P  26.8P  0.00P  
10/22/2014 11:00 MST2.46P  27.5P  0.00P  
10/22/2014 11:15 MST2.45P  26.8P  0.00P  
10/22/2014 11:30 MST2.46P  26.8P  0.00P  
10/22/2014 11:45 MST2.48P  26.0P  0.00P  
10/22/2014 12:00 MST2.49P  26.0P  0.00P  
10/22/2014 12:15 MST2.47P  26.8P  0.00P  
10/22/2014 12:30 MST2.49P  26.0P  0.00P  
10/22/2014 12:45 MST2.46P  26.8P  0.00P  
10/22/2014 13:00 MST2.49P  26.0P  0.00P  
10/22/2014 13:15 MST2.46P  26.0P  0.00P  
10/22/2014 13:30 MST2.45P  26.0P  0.00P  
10/22/2014 13:45 MST2.47P  25.2P  0.00P  
10/22/2014 14:00 MST2.46P  26.8P  0.00P  
10/22/2014 14:15 MST2.47P  26.0P  0.00P  
10/22/2014 14:30 MST2.46P  24.5P  0.00P  
10/22/2014 14:45 MST2.48P  26.0P  0.00P  
10/22/2014 15:00 MST2.50P  26.0P  0.00P  
10/22/2014 15:15 MST2.47P  26.0P  0.00P  
10/22/2014 15:30 MST2.51P  26.0P  0.00P  
10/22/2014 15:45 MST2.46P  25.2P  0.00P  
10/22/2014 16:00 MST2.47P  26.8P  0.00P  
10/22/2014 16:15 MST2.46P  25.2P  0.00P  
10/22/2014 16:30 MST2.49P  25.2P  0.00P  
10/22/2014 16:45 MST2.47P  25.2P  0.00P  
10/22/2014 17:00 MST2.47P  25.2P  0.00P  
10/22/2014 17:15 MST2.47P  25.2P  0.00P  
10/22/2014 17:30 MST2.48P  25.2P  0.00P  
10/22/2014 17:45 MST2.48P  26.0P  0.00P  
10/22/2014 18:00 MST2.49P  24.5P  0.00P  
10/22/2014 18:15 MST2.51P  25.2P  0.00P  
10/22/2014 18:30 MST2.46P  26.0P  0.00P  
10/22/2014 18:45 MST2.47P  25.2P  0.00P  
10/22/2014 19:00 MST2.47P  25.2P  0.00P  
10/22/2014 19:15 MST2.46P  25.2P  0.00P  
10/22/2014 19:30 MST2.46P  25.2P  0.00P  
10/22/2014 19:45 MST2.42P  26.0P  0.00P  
10/22/2014 20:00 MST2.47P  25.2P  0.00P  
10/22/2014 20:15 MST2.46P  26.0P  0.00P  
10/22/2014 20:30 MST2.43P  25.2P  0.00P  
10/22/2014 20:45 MST2.48P  26.0P  0.00P  
10/22/2014 21:00 MST2.44P  25.2P  0.00P  
10/22/2014 21:15 MST2.45P  25.2P  0.00P  
10/22/2014 21:30 MST2.45P  26.0P  0.00P  
10/22/2014 21:45 MST2.47P  24.5P  0.00P  
10/22/2014 22:00 MST2.45P  26.0P  0.00P  
10/22/2014 22:15 MST2.48P  26.0P  0.00P  
10/22/2014 22:30 MST2.45P  26.8P  0.00P  
10/22/2014 22:45 MST2.42P  26.0P  0.00P  
10/22/2014 23:00 MST2.44P  25.2P  0.00P  
10/22/2014 23:15 MST2.44P  26.0P  0.00P  
10/22/2014 23:30 MST2.46P  26.0P  0.00P  
10/22/2014 23:44 MST2.46P     0.00P  
10/22/2014 23:45 MST2.46P  25.2P  0.00P  
10/23/2014 00:00 MST2.44P  26.0P  0.00P  
10/23/2014 00:15 MST2.44P  25.2P  0.00P  
10/23/2014 00:30 MST2.44P  25.2P  0.00P  
10/23/2014 00:45 MST2.46P  26.8P  0.00P  
10/23/2014 01:00 MST2.47P  26.0P  0.00P  
10/23/2014 01:15 MST2.46P  25.2P  0.00P  
10/23/2014 01:30 MST2.46P  26.0P  0.00P  
10/23/2014 01:45 MST2.46P  25.2P  0.00P  
10/23/2014 02:00 MST2.44P  26.0P  0.00P  
10/23/2014 02:15 MST2.49P  25.2P  0.00P  
10/23/2014 02:30 MST2.43P  26.0P  0.00P  
10/23/2014 02:45 MST2.44P  25.2P  0.00P  
10/23/2014 03:00 MST2.45P  26.0P  0.00P  
10/23/2014 03:15 MST2.46P  26.0P  0.00P  
10/23/2014 03:30 MST2.44P  26.8P  0.00P  
10/23/2014 03:45 MST2.43P  26.0P  0.00P  
10/23/2014 04:00 MST2.43P  26.0P  0.00P  
10/23/2014 04:15 MST2.42P  26.8P  0.00P  
10/23/2014 04:30 MST2.43P  26.0P  0.00P  
10/23/2014 04:45 MST2.43P  26.8P  0.00P  
10/23/2014 05:00 MST2.44P  26.8P  0.00P  
10/23/2014 05:15 MST2.43P  26.0P  0.00P  
10/23/2014 05:30 MST2.44P  26.0P  0.00P  
10/23/2014 05:45 MST2.50P  26.0P  0.00P  
10/23/2014 06:00 MST2.44P  25.2P  0.00P  
10/23/2014 06:15 MST2.44P  26.0P  0.00P  
10/23/2014 06:30 MST2.44P  25.2P  0.00P  
10/23/2014 06:45 MST2.47P  26.0P  0.00P  
10/23/2014 07:00 MST2.44P  26.8P  0.00P  
10/23/2014 07:15 MST2.45P  26.0P  0.00P  
10/23/2014 07:30 MST2.44P  26.8P  0.00P  
10/23/2014 07:45 MST2.42P  26.8P  0.00P  
10/23/2014 08:00 MST2.45P  26.0P  0.00P  
10/23/2014 08:15 MST2.43P  26.8P  0.00P  
10/23/2014 08:30 MST2.45P  26.0P  0.00P  
10/23/2014 08:45 MST2.45P  26.8P  0.00P  
10/23/2014 09:00 MST2.43P  25.2P  0.00P  
10/23/2014 09:15 MST2.46P  25.2P  0.00P  
10/23/2014 09:30 MST2.46P  25.2P  0.00P  
10/23/2014 09:45 MST2.51P  26.0P  0.00P  
10/23/2014 10:00 MST2.51P  26.0P  0.00P  
10/23/2014 10:15 MST2.41P  26.0P  0.00P  
10/23/2014 10:30 MST2.42P  26.8P  0.00P  
10/23/2014 10:45 MST2.43P  26.0P  0.00P  
10/23/2014 11:00 MST2.49P  26.0P  0.00P  
10/23/2014 11:15 MST2.49P  26.0P  0.00P  
10/23/2014 11:30 MST2.50P  26.0P  0.00P  
10/23/2014 11:45 MST2.49P  25.2P  0.00P  
10/23/2014 12:00 MST2.48P  25.2P  0.00P  
10/23/2014 12:15 MST2.55P  26.0P  0.00P  
10/23/2014 12:30 MST2.53P  26.0P  0.00P  
10/23/2014 12:45 MST2.45P  25.2P  0.00P  
10/23/2014 13:00 MST2.45P  24.5P  0.00P  
10/23/2014 13:15 MST2.41P  24.5P  0.00P  
10/23/2014 13:30 MST2.45P  26.0P  0.00P  
10/23/2014 13:45 MST2.46P  26.0P  0.00P  
10/23/2014 14:00 MST2.50P  25.2P  0.00P  
10/23/2014 14:15 MST2.45P  24.5P  0.00P  
10/23/2014 14:30 MST2.44P  25.2P  0.00P  
10/23/2014 14:45 MST2.46P  24.5P  0.00P  
10/23/2014 15:00 MST2.55P  25.2P  0.00P  
10/23/2014 15:15 MST2.52P  25.2P  0.00P  
10/23/2014 15:30 MST2.49P  26.8P  0.00P  
10/23/2014 15:45 MST2.50P  26.0P  0.00P  
10/23/2014 16:00 MST2.50P  26.0P  0.00P  
10/23/2014 16:15 MST2.49P  25.2P  0.00P  
10/23/2014 16:30 MST2.49P  25.2P  0.00P  
10/23/2014 16:45 MST2.49P  24.5P  0.00P  
10/23/2014 17:00 MST2.49P  26.0P  0.00P  
10/23/2014 17:15 MST2.49P  25.2P  0.00P  
10/23/2014 17:30 MST2.50P  26.0P  0.00P  
10/23/2014 17:45 MST2.50P  25.2P  0.00P  
10/23/2014 18:00 MST2.49P  25.2P  0.00P  
10/23/2014 18:15 MST2.46P  26.0P  0.00P  
10/23/2014 18:30 MST2.48P  25.2P  0.00P  
10/23/2014 18:45 MST2.47P  25.2P  0.00P  
10/23/2014 19:00 MST2.48P  25.2P  0.00P  
10/23/2014 19:15 MST2.46P  25.2P  0.00P  
10/23/2014 19:30 MST2.44P  25.2P  0.00P  
10/23/2014 19:45 MST2.46P  26.0P  0.00P  
10/23/2014 20:00 MST2.46P  26.0P  0.00P  
10/23/2014 20:15 MST2.46P  26.0P  0.00P  
10/23/2014 20:30 MST2.47P  26.0P  0.00P  
10/23/2014 20:45 MST2.46P  25.2P  0.00P  
10/23/2014 21:00 MST2.46P  26.0P  0.00P  
10/23/2014 21:15 MST2.43P  24.5P  0.00P  
10/23/2014 21:30 MST2.44P  25.2P  0.00P  
10/23/2014 21:45 MST2.45P  26.0P  0.00P  
10/23/2014 22:00 MST2.42P  25.2P  0.00P  
10/23/2014 22:15 MST2.45P  26.0P  0.00P  
10/23/2014 22:30 MST2.44P  26.0P  0.00P  
10/23/2014 22:45 MST2.42P  25.2P  0.00P  
10/23/2014 23:00 MST2.44P  25.2P  0.00P  
10/23/2014 23:15 MST2.44P  25.2P  0.00P  
10/23/2014 23:29 MST2.45P  24.5P  0.00P  
10/23/2014 23:30 MST2.45P  24.5P  0.00P  
10/23/2014 23:44 MST2.43P  24.5P  0.00P  
10/23/2014 23:45 MST2.43P  24.5P  0.00P  
10/24/2014 00:00 MST2.44P  25.2P  0.00P  
10/24/2014 00:15 MST2.43P  26.0P  0.00P  
10/24/2014 00:30 MST2.44P  25.2P  0.00P  
10/24/2014 00:45 MST2.47P  25.2P  0.00P  
10/24/2014 01:00 MST2.45P  25.2P  0.00P  
10/24/2014 01:15 MST2.43P  26.0P  0.00P  
10/24/2014 01:30 MST2.43P  26.0P  0.00P  
10/24/2014 01:45 MST2.46P  25.2P  0.00P  
10/24/2014 02:00 MST2.44P  24.5P  0.00P  
10/24/2014 02:15 MST2.45P  25.2P  0.00P  
10/24/2014 02:30 MST2.45P  25.2P  0.00P  
10/24/2014 02:45 MST2.44P  25.2P  0.00P  
10/24/2014 03:00 MST2.43P  26.0P  0.00P  
10/24/2014 03:15 MST2.44P  26.0P  0.00P  
10/24/2014 03:30 MST2.43P  26.8P  0.00P  
10/24/2014 03:45 MST2.43P  26.0P  0.00P  
10/24/2014 04:00 MST2.42P  26.0P  0.00P  
10/24/2014 04:15 MST2.42P  25.2P  0.00P  
10/24/2014 04:30 MST2.42P  26.0P  0.00P  
10/24/2014 04:45 MST2.44P  26.0P  0.00P  
10/24/2014 05:00 MST2.44P  25.2P  0.00P  
10/24/2014 05:15 MST2.42P  25.2P  0.00P  
10/24/2014 05:30 MST2.44P  26.0P  0.00P  
10/24/2014 05:45 MST2.44P  26.0P  0.00P  
10/24/2014 06:00 MST2.45P  25.2P  0.00P  
10/24/2014 06:15 MST2.43P  26.8P  0.00P  
10/24/2014 06:30 MST2.41P  26.0P  0.00P  
10/24/2014 06:45 MST2.44P  26.0P  0.00P  
10/24/2014 07:00 MST2.44P  26.8P  0.00P  
10/24/2014 07:15 MST2.44P  26.8P  0.00P  
10/24/2014 07:30 MST2.44P  25.2P  0.00P  
10/24/2014 07:45 MST2.43P  24.5P  0.00P  
10/24/2014 08:00 MST2.44P  26.0P  0.00P  

Explanation
  P  Provisional data subject to revision.